<?xml version="1.0" encoding="UTF-8" standalone="no" ?>
<gpx xmlns="http://www.topografix.com/GPX/1/1" xmlns:xsi="http://www.w3.org/2001/XMLSchema-instance" xsi:schemaLocation="http://www.topografix.com/GPX/1/1 http://www.topografix.com/GPX/1/1/gpx.xsd" version="1.1" creator="VisuGPX - https://www.visugpx.com">
  <metadata>
    <name>83-D-Le Muy</name>
    <desc><![CDATA[83-D-Le Muy : Biscarlot - Castel Diaou 
2019-11-10]]></desc>
  </metadata>
  <trk>
    <name><![CDATA[2019-11-10-D-diaou]]></name>
    <trkseg>
      <trkpt lat="43.41278" lon="6.57234">
        <ele>114.1</ele>
        <time>2019-11-10T08:02:21Z</time>
      </trkpt>
      <trkpt lat="43.41278" lon="6.57234">
        <ele>113.8</ele>
        <time>2019-11-10T08:02:22Z</time>
      </trkpt>
      <trkpt lat="43.41287" lon="6.5723">
        <ele>109.2</ele>
        <time>2019-11-10T08:09:36Z</time>
      </trkpt>
      <trkpt lat="43.41295" lon="6.57222">
        <ele>109.4</ele>
        <time>2019-11-10T08:09:45Z</time>
      </trkpt>
      <trkpt lat="43.41303" lon="6.57216">
        <ele>109.3</ele>
        <time>2019-11-10T08:09:53Z</time>
      </trkpt>
      <trkpt lat="43.4131" lon="6.57208">
        <ele>109.3</ele>
        <time>2019-11-10T08:10:01Z</time>
      </trkpt>
      <trkpt lat="43.41319" lon="6.57201">
        <ele>109.2</ele>
        <time>2019-11-10T08:10:09Z</time>
      </trkpt>
      <trkpt lat="43.41326" lon="6.57192">
        <ele>109.1</ele>
        <time>2019-11-10T08:10:17Z</time>
      </trkpt>
      <trkpt lat="43.41334" lon="6.57188">
        <ele>109</ele>
        <time>2019-11-10T08:10:25Z</time>
      </trkpt>
      <trkpt lat="43.41343" lon="6.57183">
        <ele>108.9</ele>
        <time>2019-11-10T08:10:34Z</time>
      </trkpt>
      <trkpt lat="43.41352" lon="6.57178">
        <ele>108.7</ele>
        <time>2019-11-10T08:10:48Z</time>
      </trkpt>
      <trkpt lat="43.41362" lon="6.57178">
        <ele>108.6</ele>
        <time>2019-11-10T08:10:57Z</time>
      </trkpt>
      <trkpt lat="43.4137" lon="6.57173">
        <ele>108.4</ele>
        <time>2019-11-10T08:11:06Z</time>
      </trkpt>
      <trkpt lat="43.41377" lon="6.57164">
        <ele>108.3</ele>
        <time>2019-11-10T08:11:14Z</time>
      </trkpt>
      <trkpt lat="43.41387" lon="6.5716">
        <ele>108.2</ele>
        <time>2019-11-10T08:11:21Z</time>
      </trkpt>
      <trkpt lat="43.41395" lon="6.57153">
        <ele>108</ele>
        <time>2019-11-10T08:11:29Z</time>
      </trkpt>
      <trkpt lat="43.41403" lon="6.57145">
        <ele>107.6</ele>
        <time>2019-11-10T08:11:36Z</time>
      </trkpt>
      <trkpt lat="43.41408" lon="6.57135">
        <ele>107.2</ele>
        <time>2019-11-10T08:11:44Z</time>
      </trkpt>
      <trkpt lat="43.41413" lon="6.57124">
        <ele>106.3</ele>
        <time>2019-11-10T08:11:52Z</time>
      </trkpt>
      <trkpt lat="43.41416" lon="6.57112">
        <ele>104.9</ele>
        <time>2019-11-10T08:12:00Z</time>
      </trkpt>
      <trkpt lat="43.41419" lon="6.57098">
        <ele>103.9</ele>
        <time>2019-11-10T08:12:08Z</time>
      </trkpt>
      <trkpt lat="43.41418" lon="6.57086">
        <ele>103.4</ele>
        <time>2019-11-10T08:12:15Z</time>
      </trkpt>
      <trkpt lat="43.41416" lon="6.57072">
        <ele>102.9</ele>
        <time>2019-11-10T08:12:23Z</time>
      </trkpt>
      <trkpt lat="43.41413" lon="6.5706">
        <ele>102.4</ele>
        <time>2019-11-10T08:12:30Z</time>
      </trkpt>
      <trkpt lat="43.41409" lon="6.57049">
        <ele>101.9</ele>
        <time>2019-11-10T08:12:38Z</time>
      </trkpt>
      <trkpt lat="43.41401" lon="6.57041">
        <ele>101.3</ele>
        <time>2019-11-10T08:12:45Z</time>
      </trkpt>
      <trkpt lat="43.41394" lon="6.57031">
        <ele>100.2</ele>
        <time>2019-11-10T08:12:52Z</time>
      </trkpt>
      <trkpt lat="43.41386" lon="6.57023">
        <ele>98.9</ele>
        <time>2019-11-10T08:13:00Z</time>
      </trkpt>
      <trkpt lat="43.41379" lon="6.57013">
        <ele>97.7</ele>
        <time>2019-11-10T08:13:08Z</time>
      </trkpt>
      <trkpt lat="43.41374" lon="6.57002">
        <ele>96.7</ele>
        <time>2019-11-10T08:13:16Z</time>
      </trkpt>
      <trkpt lat="43.41374" lon="6.5699">
        <ele>95.6</ele>
        <time>2019-11-10T08:13:27Z</time>
      </trkpt>
      <trkpt lat="43.41381" lon="6.5698">
        <ele>95.8</ele>
        <time>2019-11-10T08:13:37Z</time>
      </trkpt>
      <trkpt lat="43.41386" lon="6.56968">
        <ele>96.3</ele>
        <time>2019-11-10T08:13:47Z</time>
      </trkpt>
      <trkpt lat="43.41388" lon="6.56954">
        <ele>97.6</ele>
        <time>2019-11-10T08:13:57Z</time>
      </trkpt>
      <trkpt lat="43.41391" lon="6.56941">
        <ele>98.5</ele>
        <time>2019-11-10T08:14:04Z</time>
      </trkpt>
      <trkpt lat="43.41391" lon="6.56928">
        <ele>99.3</ele>
        <time>2019-11-10T08:14:12Z</time>
      </trkpt>
      <trkpt lat="43.41391" lon="6.56914">
        <ele>100.5</ele>
        <time>2019-11-10T08:14:21Z</time>
      </trkpt>
      <trkpt lat="43.41393" lon="6.56902">
        <ele>101.5</ele>
        <time>2019-11-10T08:14:30Z</time>
      </trkpt>
      <trkpt lat="43.41396" lon="6.56889">
        <ele>102.1</ele>
        <time>2019-11-10T08:14:38Z</time>
      </trkpt>
      <trkpt lat="43.41395" lon="6.56876">
        <ele>102.7</ele>
        <time>2019-11-10T08:14:48Z</time>
      </trkpt>
      <trkpt lat="43.41397" lon="6.56865">
        <ele>102.9</ele>
        <time>2019-11-10T08:14:55Z</time>
      </trkpt>
      <trkpt lat="43.41398" lon="6.56851">
        <ele>103</ele>
        <time>2019-11-10T08:15:05Z</time>
      </trkpt>
      <trkpt lat="43.41399" lon="6.56838">
        <ele>103.2</ele>
        <time>2019-11-10T08:15:13Z</time>
      </trkpt>
      <trkpt lat="43.41396" lon="6.56826">
        <ele>103.5</ele>
        <time>2019-11-10T08:15:25Z</time>
      </trkpt>
      <trkpt lat="43.414" lon="6.56814">
        <ele>103.6</ele>
        <time>2019-11-10T08:15:36Z</time>
      </trkpt>
      <trkpt lat="43.414" lon="6.56801">
        <ele>103.7</ele>
        <time>2019-11-10T08:15:44Z</time>
      </trkpt>
      <trkpt lat="43.41398" lon="6.56788">
        <ele>103.8</ele>
        <time>2019-11-10T08:15:52Z</time>
      </trkpt>
      <trkpt lat="43.414" lon="6.56776">
        <ele>104.1</ele>
        <time>2019-11-10T08:15:59Z</time>
      </trkpt>
      <trkpt lat="43.414" lon="6.56763">
        <ele>104.2</ele>
        <time>2019-11-10T08:16:09Z</time>
      </trkpt>
      <trkpt lat="43.41401" lon="6.56751">
        <ele>104.2</ele>
        <time>2019-11-10T08:16:16Z</time>
      </trkpt>
      <trkpt lat="43.41403" lon="6.56737">
        <ele>104.2</ele>
        <time>2019-11-10T08:16:24Z</time>
      </trkpt>
      <trkpt lat="43.414" lon="6.56724">
        <ele>104.3</ele>
        <time>2019-11-10T08:16:32Z</time>
      </trkpt>
      <trkpt lat="43.414" lon="6.56711">
        <ele>104.4</ele>
        <time>2019-11-10T08:16:41Z</time>
      </trkpt>
      <trkpt lat="43.41397" lon="6.56699">
        <ele>104.5</ele>
        <time>2019-11-10T08:16:48Z</time>
      </trkpt>
      <trkpt lat="43.41396" lon="6.56685">
        <ele>104.7</ele>
        <time>2019-11-10T08:16:57Z</time>
      </trkpt>
      <trkpt lat="43.41396" lon="6.56672">
        <ele>105.1</ele>
        <time>2019-11-10T08:17:07Z</time>
      </trkpt>
      <trkpt lat="43.41402" lon="6.56663">
        <ele>105.5</ele>
        <time>2019-11-10T08:17:28Z</time>
      </trkpt>
      <trkpt lat="43.41403" lon="6.5665">
        <ele>105.5</ele>
        <time>2019-11-10T08:17:44Z</time>
      </trkpt>
      <trkpt lat="43.41406" lon="6.56637">
        <ele>106.2</ele>
        <time>2019-11-10T08:17:54Z</time>
      </trkpt>
      <trkpt lat="43.41407" lon="6.56625">
        <ele>106.9</ele>
        <time>2019-11-10T08:18:02Z</time>
      </trkpt>
      <trkpt lat="43.41407" lon="6.56612">
        <ele>107.7</ele>
        <time>2019-11-10T08:18:11Z</time>
      </trkpt>
      <trkpt lat="43.41404" lon="6.56599">
        <ele>109</ele>
        <time>2019-11-10T08:18:22Z</time>
      </trkpt>
      <trkpt lat="43.414" lon="6.56587">
        <ele>110.1</ele>
        <time>2019-11-10T08:18:30Z</time>
      </trkpt>
      <trkpt lat="43.41394" lon="6.56577">
        <ele>111</ele>
        <time>2019-11-10T08:18:40Z</time>
      </trkpt>
      <trkpt lat="43.41391" lon="6.56565">
        <ele>112.1</ele>
        <time>2019-11-10T08:18:48Z</time>
      </trkpt>
      <trkpt lat="43.41387" lon="6.56553">
        <ele>112.9</ele>
        <time>2019-11-10T08:18:57Z</time>
      </trkpt>
      <trkpt lat="43.41385" lon="6.5654">
        <ele>113.7</ele>
        <time>2019-11-10T08:19:06Z</time>
      </trkpt>
      <trkpt lat="43.41387" lon="6.56527">
        <ele>114.3</ele>
        <time>2019-11-10T08:19:16Z</time>
      </trkpt>
      <trkpt lat="43.41391" lon="6.56515">
        <ele>115.6</ele>
        <time>2019-11-10T08:19:28Z</time>
      </trkpt>
      <trkpt lat="43.41398" lon="6.56507">
        <ele>116.1</ele>
        <time>2019-11-10T08:19:36Z</time>
      </trkpt>
      <trkpt lat="43.41405" lon="6.56497">
        <ele>116.5</ele>
        <time>2019-11-10T08:19:47Z</time>
      </trkpt>
      <trkpt lat="43.41413" lon="6.56489">
        <ele>116.8</ele>
        <time>2019-11-10T08:19:57Z</time>
      </trkpt>
      <trkpt lat="43.4142" lon="6.56481">
        <ele>117.2</ele>
        <time>2019-11-10T08:20:05Z</time>
      </trkpt>
      <trkpt lat="43.41425" lon="6.56471">
        <ele>117.5</ele>
        <time>2019-11-10T08:20:11Z</time>
      </trkpt>
      <trkpt lat="43.41431" lon="6.5646">
        <ele>117.7</ele>
        <time>2019-11-10T08:20:18Z</time>
      </trkpt>
      <trkpt lat="43.41435" lon="6.56449">
        <ele>117.8</ele>
        <time>2019-11-10T08:20:25Z</time>
      </trkpt>
      <trkpt lat="43.41437" lon="6.56436">
        <ele>117.9</ele>
        <time>2019-11-10T08:20:33Z</time>
      </trkpt>
      <trkpt lat="43.41437" lon="6.56422">
        <ele>117.9</ele>
        <time>2019-11-10T08:20:41Z</time>
      </trkpt>
      <trkpt lat="43.4144" lon="6.56409">
        <ele>117.9</ele>
        <time>2019-11-10T08:20:49Z</time>
      </trkpt>
      <trkpt lat="43.41441" lon="6.56397">
        <ele>117.9</ele>
        <time>2019-11-10T08:20:57Z</time>
      </trkpt>
      <trkpt lat="43.41443" lon="6.56384">
        <ele>117.7</ele>
        <time>2019-11-10T08:21:05Z</time>
      </trkpt>
      <trkpt lat="43.41444" lon="6.5637">
        <ele>117.6</ele>
        <time>2019-11-10T08:21:13Z</time>
      </trkpt>
      <trkpt lat="43.4144" lon="6.56359">
        <ele>117.3</ele>
        <time>2019-11-10T08:21:23Z</time>
      </trkpt>
      <trkpt lat="43.41442" lon="6.56347">
        <ele>116.3</ele>
        <time>2019-11-10T08:21:44Z</time>
      </trkpt>
      <trkpt lat="43.41444" lon="6.56334">
        <ele>116.1</ele>
        <time>2019-11-10T08:22:21Z</time>
      </trkpt>
      <trkpt lat="43.41444" lon="6.56321">
        <ele>116.2</ele>
        <time>2019-11-10T08:22:35Z</time>
      </trkpt>
      <trkpt lat="43.41444" lon="6.56308">
        <ele>115.4</ele>
        <time>2019-11-10T08:22:54Z</time>
      </trkpt>
      <trkpt lat="43.41447" lon="6.56297">
        <ele>114.7</ele>
        <time>2019-11-10T08:23:35Z</time>
      </trkpt>
      <trkpt lat="43.41455" lon="6.56305">
        <ele>114.1</ele>
        <time>2019-11-10T08:24:32Z</time>
      </trkpt>
      <trkpt lat="43.41456" lon="6.56318">
        <ele>113.5</ele>
        <time>2019-11-10T08:25:02Z</time>
      </trkpt>
      <trkpt lat="43.41455" lon="6.5633">
        <ele>114</ele>
        <time>2019-11-10T08:25:16Z</time>
      </trkpt>
      <trkpt lat="43.41454" lon="6.56343">
        <ele>115</ele>
        <time>2019-11-10T08:25:42Z</time>
      </trkpt>
      <trkpt lat="43.41449" lon="6.56354">
        <ele>115.8</ele>
        <time>2019-11-10T08:25:56Z</time>
      </trkpt>
      <trkpt lat="43.41441" lon="6.5636">
        <ele>116.4</ele>
        <time>2019-11-10T08:26:07Z</time>
      </trkpt>
      <trkpt lat="43.41434" lon="6.56352">
        <ele>116.8</ele>
        <time>2019-11-10T08:26:24Z</time>
      </trkpt>
      <trkpt lat="43.41424" lon="6.56353">
        <ele>116.5</ele>
        <time>2019-11-10T08:26:33Z</time>
      </trkpt>
      <trkpt lat="43.41415" lon="6.56359">
        <ele>116.3</ele>
        <time>2019-11-10T08:26:41Z</time>
      </trkpt>
      <trkpt lat="43.41407" lon="6.56366">
        <ele>116</ele>
        <time>2019-11-10T08:26:49Z</time>
      </trkpt>
      <trkpt lat="43.41399" lon="6.56371">
        <ele>115.5</ele>
        <time>2019-11-10T08:27:00Z</time>
      </trkpt>
      <trkpt lat="43.41391" lon="6.56374">
        <ele>115.2</ele>
        <time>2019-11-10T08:27:12Z</time>
      </trkpt>
      <trkpt lat="43.41387" lon="6.56363">
        <ele>114.8</ele>
        <time>2019-11-10T08:27:27Z</time>
      </trkpt>
      <trkpt lat="43.41385" lon="6.5635">
        <ele>114.2</ele>
        <time>2019-11-10T08:27:38Z</time>
      </trkpt>
      <trkpt lat="43.41382" lon="6.56338">
        <ele>113.1</ele>
        <time>2019-11-10T08:28:34Z</time>
      </trkpt>
      <trkpt lat="43.41381" lon="6.56325">
        <ele>112.8</ele>
        <time>2019-11-10T08:31:02Z</time>
      </trkpt>
      <trkpt lat="43.41378" lon="6.56313">
        <ele>112.7</ele>
        <time>2019-11-10T08:31:11Z</time>
      </trkpt>
      <trkpt lat="43.41372" lon="6.56303">
        <ele>112.4</ele>
        <time>2019-11-10T08:31:21Z</time>
      </trkpt>
      <trkpt lat="43.41366" lon="6.56294">
        <ele>112.3</ele>
        <time>2019-11-10T08:31:30Z</time>
      </trkpt>
      <trkpt lat="43.41359" lon="6.56284">
        <ele>112</ele>
        <time>2019-11-10T08:31:40Z</time>
      </trkpt>
      <trkpt lat="43.41352" lon="6.56273">
        <ele>111.4</ele>
        <time>2019-11-10T08:31:51Z</time>
      </trkpt>
      <trkpt lat="43.4135" lon="6.5626">
        <ele>111.4</ele>
        <time>2019-11-10T08:31:59Z</time>
      </trkpt>
      <trkpt lat="43.4135" lon="6.56247">
        <ele>111.2</ele>
        <time>2019-11-10T08:32:09Z</time>
      </trkpt>
      <trkpt lat="43.41348" lon="6.56234">
        <ele>110.9</ele>
        <time>2019-11-10T08:32:19Z</time>
      </trkpt>
      <trkpt lat="43.41344" lon="6.56223">
        <ele>110.8</ele>
        <time>2019-11-10T08:32:27Z</time>
      </trkpt>
      <trkpt lat="43.41338" lon="6.56213">
        <ele>110.6</ele>
        <time>2019-11-10T08:32:35Z</time>
      </trkpt>
      <trkpt lat="43.41329" lon="6.56207">
        <ele>110.6</ele>
        <time>2019-11-10T08:32:41Z</time>
      </trkpt>
      <trkpt lat="43.4132" lon="6.56206">
        <ele>110.5</ele>
        <time>2019-11-10T08:32:48Z</time>
      </trkpt>
      <trkpt lat="43.41311" lon="6.56204">
        <ele>110.5</ele>
        <time>2019-11-10T08:32:54Z</time>
      </trkpt>
      <trkpt lat="43.41305" lon="6.56193">
        <ele>110.5</ele>
        <time>2019-11-10T08:33:04Z</time>
      </trkpt>
      <trkpt lat="43.41311" lon="6.56183">
        <ele>110.5</ele>
        <time>2019-11-10T08:33:14Z</time>
      </trkpt>
      <trkpt lat="43.41318" lon="6.56174">
        <ele>110.6</ele>
        <time>2019-11-10T08:33:23Z</time>
      </trkpt>
      <trkpt lat="43.41321" lon="6.56163">
        <ele>110.6</ele>
        <time>2019-11-10T08:33:31Z</time>
      </trkpt>
      <trkpt lat="43.41325" lon="6.5615">
        <ele>110.3</ele>
        <time>2019-11-10T08:33:40Z</time>
      </trkpt>
      <trkpt lat="43.41329" lon="6.56138">
        <ele>110.2</ele>
        <time>2019-11-10T08:33:47Z</time>
      </trkpt>
      <trkpt lat="43.4133" lon="6.56125">
        <ele>110.1</ele>
        <time>2019-11-10T08:33:56Z</time>
      </trkpt>
      <trkpt lat="43.41322" lon="6.56115">
        <ele>109.9</ele>
        <time>2019-11-10T08:34:03Z</time>
      </trkpt>
      <trkpt lat="43.41318" lon="6.56103">
        <ele>109.5</ele>
        <time>2019-11-10T08:34:17Z</time>
      </trkpt>
      <trkpt lat="43.41321" lon="6.5609">
        <ele>109.3</ele>
        <time>2019-11-10T08:34:27Z</time>
      </trkpt>
      <trkpt lat="43.41321" lon="6.56077">
        <ele>109.2</ele>
        <time>2019-11-10T08:34:34Z</time>
      </trkpt>
      <trkpt lat="43.41326" lon="6.56067">
        <ele>109.1</ele>
        <time>2019-11-10T08:34:55Z</time>
      </trkpt>
      <trkpt lat="43.41335" lon="6.56063">
        <ele>108.9</ele>
        <time>2019-11-10T08:35:06Z</time>
      </trkpt>
      <trkpt lat="43.41342" lon="6.56055">
        <ele>108.5</ele>
        <time>2019-11-10T08:35:18Z</time>
      </trkpt>
      <trkpt lat="43.41346" lon="6.56044">
        <ele>107.6</ele>
        <time>2019-11-10T08:35:26Z</time>
      </trkpt>
      <trkpt lat="43.4135" lon="6.56032">
        <ele>107.1</ele>
        <time>2019-11-10T08:35:32Z</time>
      </trkpt>
      <trkpt lat="43.41355" lon="6.56021">
        <ele>106.5</ele>
        <time>2019-11-10T08:35:41Z</time>
      </trkpt>
      <trkpt lat="43.41361" lon="6.5601">
        <ele>106.1</ele>
        <time>2019-11-10T08:35:50Z</time>
      </trkpt>
      <trkpt lat="43.41367" lon="6.55997">
        <ele>105.9</ele>
        <time>2019-11-10T08:35:56Z</time>
      </trkpt>
      <trkpt lat="43.4137" lon="6.55985">
        <ele>105.7</ele>
        <time>2019-11-10T08:36:03Z</time>
      </trkpt>
      <trkpt lat="43.41371" lon="6.55972">
        <ele>105.5</ele>
        <time>2019-11-10T08:36:12Z</time>
      </trkpt>
      <trkpt lat="43.41374" lon="6.5596">
        <ele>104.8</ele>
        <time>2019-11-10T08:36:23Z</time>
      </trkpt>
      <trkpt lat="43.4138" lon="6.55949">
        <ele>104.4</ele>
        <time>2019-11-10T08:36:31Z</time>
      </trkpt>
      <trkpt lat="43.41388" lon="6.55942">
        <ele>103.5</ele>
        <time>2019-11-10T08:36:46Z</time>
      </trkpt>
      <trkpt lat="43.41379" lon="6.55936">
        <ele>103.2</ele>
        <time>2019-11-10T08:36:55Z</time>
      </trkpt>
      <trkpt lat="43.41383" lon="6.55923">
        <ele>103</ele>
        <time>2019-11-10T08:37:04Z</time>
      </trkpt>
      <trkpt lat="43.41386" lon="6.55911">
        <ele>102.8</ele>
        <time>2019-11-10T08:37:13Z</time>
      </trkpt>
      <trkpt lat="43.41387" lon="6.55898">
        <ele>102.8</ele>
        <time>2019-11-10T08:37:21Z</time>
      </trkpt>
      <trkpt lat="43.41389" lon="6.55886">
        <ele>103.4</ele>
        <time>2019-11-10T08:37:38Z</time>
      </trkpt>
      <trkpt lat="43.4139" lon="6.55872">
        <ele>103.9</ele>
        <time>2019-11-10T08:37:46Z</time>
      </trkpt>
      <trkpt lat="43.41389" lon="6.55859">
        <ele>104.4</ele>
        <time>2019-11-10T08:37:54Z</time>
      </trkpt>
      <trkpt lat="43.41392" lon="6.55845">
        <ele>104.7</ele>
        <time>2019-11-10T08:38:01Z</time>
      </trkpt>
      <trkpt lat="43.41401" lon="6.55839">
        <ele>105.1</ele>
        <time>2019-11-10T08:38:08Z</time>
      </trkpt>
      <trkpt lat="43.41409" lon="6.55831">
        <ele>105.7</ele>
        <time>2019-11-10T08:38:16Z</time>
      </trkpt>
      <trkpt lat="43.41416" lon="6.55822">
        <ele>106.4</ele>
        <time>2019-11-10T08:38:24Z</time>
      </trkpt>
      <trkpt lat="43.41416" lon="6.55809">
        <ele>107.5</ele>
        <time>2019-11-10T08:38:40Z</time>
      </trkpt>
      <trkpt lat="43.41422" lon="6.55798">
        <ele>107.8</ele>
        <time>2019-11-10T08:38:46Z</time>
      </trkpt>
      <trkpt lat="43.41426" lon="6.55787">
        <ele>108</ele>
        <time>2019-11-10T08:38:54Z</time>
      </trkpt>
      <trkpt lat="43.41432" lon="6.55777">
        <ele>108.2</ele>
        <time>2019-11-10T08:39:01Z</time>
      </trkpt>
      <trkpt lat="43.41436" lon="6.55765">
        <ele>108.2</ele>
        <time>2019-11-10T08:39:06Z</time>
      </trkpt>
      <trkpt lat="43.41438" lon="6.55752">
        <ele>108.2</ele>
        <time>2019-11-10T08:39:15Z</time>
      </trkpt>
      <trkpt lat="43.41439" lon="6.55739">
        <ele>108.1</ele>
        <time>2019-11-10T08:39:30Z</time>
      </trkpt>
      <trkpt lat="43.41448" lon="6.55734">
        <ele>107.9</ele>
        <time>2019-11-10T08:39:38Z</time>
      </trkpt>
      <trkpt lat="43.41456" lon="6.55726">
        <ele>107.9</ele>
        <time>2019-11-10T08:39:47Z</time>
      </trkpt>
      <trkpt lat="43.41447" lon="6.55723">
        <ele>107.6</ele>
        <time>2019-11-10T08:40:30Z</time>
      </trkpt>
      <trkpt lat="43.41456" lon="6.55719">
        <ele>107.4</ele>
        <time>2019-11-10T08:41:14Z</time>
      </trkpt>
      <trkpt lat="43.41465" lon="6.55719">
        <ele>107.4</ele>
        <time>2019-11-10T08:42:55Z</time>
      </trkpt>
      <trkpt lat="43.41466" lon="6.55706">
        <ele>107</ele>
        <time>2019-11-10T08:43:55Z</time>
      </trkpt>
      <trkpt lat="43.4147" lon="6.55694">
        <ele>107.1</ele>
        <time>2019-11-10T08:44:13Z</time>
      </trkpt>
      <trkpt lat="43.41478" lon="6.55687">
        <ele>106.9</ele>
        <time>2019-11-10T08:44:21Z</time>
      </trkpt>
      <trkpt lat="43.41486" lon="6.55679">
        <ele>106.6</ele>
        <time>2019-11-10T08:44:29Z</time>
      </trkpt>
      <trkpt lat="43.41494" lon="6.55672">
        <ele>106.4</ele>
        <time>2019-11-10T08:44:37Z</time>
      </trkpt>
      <trkpt lat="43.41504" lon="6.55666">
        <ele>106.3</ele>
        <time>2019-11-10T08:44:45Z</time>
      </trkpt>
      <trkpt lat="43.41512" lon="6.55661">
        <ele>106.2</ele>
        <time>2019-11-10T08:44:51Z</time>
      </trkpt>
      <trkpt lat="43.4152" lon="6.55655">
        <ele>106</ele>
        <time>2019-11-10T08:44:58Z</time>
      </trkpt>
      <trkpt lat="43.41528" lon="6.55648">
        <ele>106</ele>
        <time>2019-11-10T08:45:04Z</time>
      </trkpt>
      <trkpt lat="43.41536" lon="6.55642">
        <ele>106</ele>
        <time>2019-11-10T08:45:12Z</time>
      </trkpt>
      <trkpt lat="43.41545" lon="6.55636">
        <ele>106</ele>
        <time>2019-11-10T08:45:20Z</time>
      </trkpt>
      <trkpt lat="43.41554" lon="6.55635">
        <ele>105.5</ele>
        <time>2019-11-10T08:45:29Z</time>
      </trkpt>
      <trkpt lat="43.41563" lon="6.55631">
        <ele>104.9</ele>
        <time>2019-11-10T08:45:37Z</time>
      </trkpt>
      <trkpt lat="43.41572" lon="6.55627">
        <ele>104.2</ele>
        <time>2019-11-10T08:45:45Z</time>
      </trkpt>
      <trkpt lat="43.41581" lon="6.55624">
        <ele>103.9</ele>
        <time>2019-11-10T08:45:51Z</time>
      </trkpt>
      <trkpt lat="43.4159" lon="6.55617">
        <ele>103.6</ele>
        <time>2019-11-10T08:45:57Z</time>
      </trkpt>
      <trkpt lat="43.41599" lon="6.55614">
        <ele>103.3</ele>
        <time>2019-11-10T08:46:06Z</time>
      </trkpt>
      <trkpt lat="43.41608" lon="6.5561">
        <ele>103.1</ele>
        <time>2019-11-10T08:46:15Z</time>
      </trkpt>
      <trkpt lat="43.41612" lon="6.55598">
        <ele>102.2</ele>
        <time>2019-11-10T08:47:50Z</time>
      </trkpt>
      <trkpt lat="43.41603" lon="6.55591">
        <ele>102.2</ele>
        <time>2019-11-10T08:48:03Z</time>
      </trkpt>
      <trkpt lat="43.41593" lon="6.55588">
        <ele>102</ele>
        <time>2019-11-10T08:48:12Z</time>
      </trkpt>
      <trkpt lat="43.41584" lon="6.55585">
        <ele>101.8</ele>
        <time>2019-11-10T08:48:22Z</time>
      </trkpt>
      <trkpt lat="43.41574" lon="6.55583">
        <ele>101.3</ele>
        <time>2019-11-10T08:48:32Z</time>
      </trkpt>
      <trkpt lat="43.41565" lon="6.5558">
        <ele>100.4</ele>
        <time>2019-11-10T08:48:41Z</time>
      </trkpt>
      <trkpt lat="43.41556" lon="6.55575">
        <ele>99.2</ele>
        <time>2019-11-10T08:48:51Z</time>
      </trkpt>
      <trkpt lat="43.4155" lon="6.55566">
        <ele>97.7</ele>
        <time>2019-11-10T08:49:03Z</time>
      </trkpt>
      <trkpt lat="43.41541" lon="6.55561">
        <ele>96.6</ele>
        <time>2019-11-10T08:49:13Z</time>
      </trkpt>
      <trkpt lat="43.41531" lon="6.55562">
        <ele>95.5</ele>
        <time>2019-11-10T08:49:23Z</time>
      </trkpt>
      <trkpt lat="43.41522" lon="6.55558">
        <ele>94.2</ele>
        <time>2019-11-10T08:49:35Z</time>
      </trkpt>
      <trkpt lat="43.41514" lon="6.55551">
        <ele>93.1</ele>
        <time>2019-11-10T08:49:45Z</time>
      </trkpt>
      <trkpt lat="43.41505" lon="6.55547">
        <ele>92.2</ele>
        <time>2019-11-10T08:49:55Z</time>
      </trkpt>
      <trkpt lat="43.41496" lon="6.55543">
        <ele>91.2</ele>
        <time>2019-11-10T08:50:06Z</time>
      </trkpt>
      <trkpt lat="43.41487" lon="6.55542">
        <ele>90.9</ele>
        <time>2019-11-10T08:50:14Z</time>
      </trkpt>
      <trkpt lat="43.41478" lon="6.55541">
        <ele>90.5</ele>
        <time>2019-11-10T08:50:22Z</time>
      </trkpt>
      <trkpt lat="43.4147" lon="6.55535">
        <ele>89.9</ele>
        <time>2019-11-10T08:50:30Z</time>
      </trkpt>
      <trkpt lat="43.41462" lon="6.55528">
        <ele>89.3</ele>
        <time>2019-11-10T08:50:37Z</time>
      </trkpt>
      <trkpt lat="43.41453" lon="6.55524">
        <ele>88.5</ele>
        <time>2019-11-10T08:50:45Z</time>
      </trkpt>
      <trkpt lat="43.41444" lon="6.55521">
        <ele>87.3</ele>
        <time>2019-11-10T08:50:56Z</time>
      </trkpt>
      <trkpt lat="43.41435" lon="6.55516">
        <ele>86.2</ele>
        <time>2019-11-10T08:51:07Z</time>
      </trkpt>
      <trkpt lat="43.41426" lon="6.5551">
        <ele>85.4</ele>
        <time>2019-11-10T08:51:15Z</time>
      </trkpt>
      <trkpt lat="43.41416" lon="6.55509">
        <ele>84.4</ele>
        <time>2019-11-10T08:51:25Z</time>
      </trkpt>
      <trkpt lat="43.41406" lon="6.5551">
        <ele>83.5</ele>
        <time>2019-11-10T08:51:34Z</time>
      </trkpt>
      <trkpt lat="43.41397" lon="6.55512">
        <ele>82.5</ele>
        <time>2019-11-10T08:51:43Z</time>
      </trkpt>
      <trkpt lat="43.41387" lon="6.55513">
        <ele>81.8</ele>
        <time>2019-11-10T08:51:52Z</time>
      </trkpt>
      <trkpt lat="43.41378" lon="6.55511">
        <ele>81.3</ele>
        <time>2019-11-10T08:51:59Z</time>
      </trkpt>
      <trkpt lat="43.41369" lon="6.55508">
        <ele>80.4</ele>
        <time>2019-11-10T08:52:20Z</time>
      </trkpt>
      <trkpt lat="43.4136" lon="6.55509">
        <ele>80</ele>
        <time>2019-11-10T08:52:29Z</time>
      </trkpt>
      <trkpt lat="43.4135" lon="6.55509">
        <ele>79.7</ele>
        <time>2019-11-10T08:52:39Z</time>
      </trkpt>
      <trkpt lat="43.41347" lon="6.55496">
        <ele>78.6</ele>
        <time>2019-11-10T08:52:55Z</time>
      </trkpt>
      <trkpt lat="43.41344" lon="6.55484">
        <ele>77.7</ele>
        <time>2019-11-10T08:53:06Z</time>
      </trkpt>
      <trkpt lat="43.41344" lon="6.55472">
        <ele>76.8</ele>
        <time>2019-11-10T08:53:15Z</time>
      </trkpt>
      <trkpt lat="43.41343" lon="6.55459">
        <ele>74.5</ele>
        <time>2019-11-10T08:53:49Z</time>
      </trkpt>
      <trkpt lat="43.41334" lon="6.55458">
        <ele>74</ele>
        <time>2019-11-10T08:55:17Z</time>
      </trkpt>
      <trkpt lat="43.41325" lon="6.55458">
        <ele>74.2</ele>
        <time>2019-11-10T08:55:29Z</time>
      </trkpt>
      <trkpt lat="43.41316" lon="6.55461">
        <ele>74.2</ele>
        <time>2019-11-10T08:55:41Z</time>
      </trkpt>
      <trkpt lat="43.41307" lon="6.5546">
        <ele>74.1</ele>
        <time>2019-11-10T08:55:51Z</time>
      </trkpt>
      <trkpt lat="43.41297" lon="6.55459">
        <ele>74.3</ele>
        <time>2019-11-10T08:56:15Z</time>
      </trkpt>
      <trkpt lat="43.41288" lon="6.55457">
        <ele>74.6</ele>
        <time>2019-11-10T08:56:23Z</time>
      </trkpt>
      <trkpt lat="43.41278" lon="6.55454">
        <ele>74.7</ele>
        <time>2019-11-10T08:56:31Z</time>
      </trkpt>
      <trkpt lat="43.41269" lon="6.55453">
        <ele>74.5</ele>
        <time>2019-11-10T08:56:38Z</time>
      </trkpt>
      <trkpt lat="43.41258" lon="6.55452">
        <ele>74.5</ele>
        <time>2019-11-10T08:56:45Z</time>
      </trkpt>
      <trkpt lat="43.41249" lon="6.55452">
        <ele>74.6</ele>
        <time>2019-11-10T08:56:52Z</time>
      </trkpt>
      <trkpt lat="43.4124" lon="6.55449">
        <ele>74.7</ele>
        <time>2019-11-10T08:56:59Z</time>
      </trkpt>
      <trkpt lat="43.41231" lon="6.55445">
        <ele>74.7</ele>
        <time>2019-11-10T08:57:10Z</time>
      </trkpt>
      <trkpt lat="43.41223" lon="6.55439">
        <ele>74.5</ele>
        <time>2019-11-10T08:57:21Z</time>
      </trkpt>
      <trkpt lat="43.41214" lon="6.55436">
        <ele>74.4</ele>
        <time>2019-11-10T08:57:29Z</time>
      </trkpt>
      <trkpt lat="43.41205" lon="6.55433">
        <ele>74.3</ele>
        <time>2019-11-10T08:57:37Z</time>
      </trkpt>
      <trkpt lat="43.41196" lon="6.55432">
        <ele>74.4</ele>
        <time>2019-11-10T08:57:44Z</time>
      </trkpt>
      <trkpt lat="43.41187" lon="6.5543">
        <ele>74.7</ele>
        <time>2019-11-10T08:58:30Z</time>
      </trkpt>
      <trkpt lat="43.41177" lon="6.55431">
        <ele>75.2</ele>
        <time>2019-11-10T08:58:45Z</time>
      </trkpt>
      <trkpt lat="43.41168" lon="6.5543">
        <ele>75.7</ele>
        <time>2019-11-10T08:58:54Z</time>
      </trkpt>
      <trkpt lat="43.41159" lon="6.55423">
        <ele>76</ele>
        <time>2019-11-10T08:59:02Z</time>
      </trkpt>
      <trkpt lat="43.4115" lon="6.5542">
        <ele>76.1</ele>
        <time>2019-11-10T08:59:10Z</time>
      </trkpt>
      <trkpt lat="43.41141" lon="6.55416">
        <ele>76</ele>
        <time>2019-11-10T08:59:19Z</time>
      </trkpt>
      <trkpt lat="43.41132" lon="6.55411">
        <ele>75.9</ele>
        <time>2019-11-10T08:59:27Z</time>
      </trkpt>
      <trkpt lat="43.41123" lon="6.55408">
        <ele>75.9</ele>
        <time>2019-11-10T08:59:35Z</time>
      </trkpt>
      <trkpt lat="43.41113" lon="6.55409">
        <ele>76.5</ele>
        <time>2019-11-10T09:00:01Z</time>
      </trkpt>
      <trkpt lat="43.41105" lon="6.55404">
        <ele>76.7</ele>
        <time>2019-11-10T09:00:12Z</time>
      </trkpt>
      <trkpt lat="43.41095" lon="6.55407">
        <ele>77</ele>
        <time>2019-11-10T09:01:39Z</time>
      </trkpt>
      <trkpt lat="43.41089" lon="6.55398">
        <ele>76.7</ele>
        <time>2019-11-10T09:02:01Z</time>
      </trkpt>
      <trkpt lat="43.41098" lon="6.55398">
        <ele>74.3</ele>
        <time>2019-11-10T09:03:12Z</time>
      </trkpt>
      <trkpt lat="43.41089" lon="6.55394">
        <ele>74.5</ele>
        <time>2019-11-10T09:04:19Z</time>
      </trkpt>
      <trkpt lat="43.4108" lon="6.5539">
        <ele>75.1</ele>
        <time>2019-11-10T09:05:00Z</time>
      </trkpt>
      <trkpt lat="43.41071" lon="6.55388">
        <ele>75.4</ele>
        <time>2019-11-10T09:05:16Z</time>
      </trkpt>
      <trkpt lat="43.41062" lon="6.55387">
        <ele>75.7</ele>
        <time>2019-11-10T09:05:51Z</time>
      </trkpt>
      <trkpt lat="43.41052" lon="6.55393">
        <ele>76.4</ele>
        <time>2019-11-10T09:06:03Z</time>
      </trkpt>
      <trkpt lat="43.41043" lon="6.55391">
        <ele>76.9</ele>
        <time>2019-11-10T09:06:12Z</time>
      </trkpt>
      <trkpt lat="43.41033" lon="6.55391">
        <ele>77.4</ele>
        <time>2019-11-10T09:06:22Z</time>
      </trkpt>
      <trkpt lat="43.41025" lon="6.55395">
        <ele>78.2</ele>
        <time>2019-11-10T09:07:21Z</time>
      </trkpt>
      <trkpt lat="43.41015" lon="6.55394">
        <ele>78.1</ele>
        <time>2019-11-10T09:07:31Z</time>
      </trkpt>
      <trkpt lat="43.41006" lon="6.55393">
        <ele>77.8</ele>
        <time>2019-11-10T09:07:39Z</time>
      </trkpt>
      <trkpt lat="43.40997" lon="6.55391">
        <ele>77.2</ele>
        <time>2019-11-10T09:07:50Z</time>
      </trkpt>
      <trkpt lat="43.40987" lon="6.55391">
        <ele>76.7</ele>
        <time>2019-11-10T09:08:00Z</time>
      </trkpt>
      <trkpt lat="43.40978" lon="6.55392">
        <ele>76.6</ele>
        <time>2019-11-10T09:08:09Z</time>
      </trkpt>
      <trkpt lat="43.40969" lon="6.55392">
        <ele>76.7</ele>
        <time>2019-11-10T09:08:19Z</time>
      </trkpt>
      <trkpt lat="43.40959" lon="6.55393">
        <ele>76.8</ele>
        <time>2019-11-10T09:08:33Z</time>
      </trkpt>
      <trkpt lat="43.4095" lon="6.55395">
        <ele>76.9</ele>
        <time>2019-11-10T09:08:42Z</time>
      </trkpt>
      <trkpt lat="43.40941" lon="6.55396">
        <ele>77.2</ele>
        <time>2019-11-10T09:08:52Z</time>
      </trkpt>
      <trkpt lat="43.40931" lon="6.55395">
        <ele>77.3</ele>
        <time>2019-11-10T09:09:00Z</time>
      </trkpt>
      <trkpt lat="43.40922" lon="6.55396">
        <ele>77.4</ele>
        <time>2019-11-10T09:09:09Z</time>
      </trkpt>
      <trkpt lat="43.40913" lon="6.55396">
        <ele>77.4</ele>
        <time>2019-11-10T09:09:19Z</time>
      </trkpt>
      <trkpt lat="43.40905" lon="6.5539">
        <ele>78</ele>
        <time>2019-11-10T09:10:05Z</time>
      </trkpt>
      <trkpt lat="43.40895" lon="6.55391">
        <ele>77.9</ele>
        <time>2019-11-10T09:10:40Z</time>
      </trkpt>
      <trkpt lat="43.40885" lon="6.55388">
        <ele>78.1</ele>
        <time>2019-11-10T09:10:49Z</time>
      </trkpt>
      <trkpt lat="43.40876" lon="6.55385">
        <ele>78.1</ele>
        <time>2019-11-10T09:10:57Z</time>
      </trkpt>
      <trkpt lat="43.40867" lon="6.55382">
        <ele>78</ele>
        <time>2019-11-10T09:11:05Z</time>
      </trkpt>
      <trkpt lat="43.40857" lon="6.55379">
        <ele>77.9</ele>
        <time>2019-11-10T09:11:13Z</time>
      </trkpt>
      <trkpt lat="43.40847" lon="6.55374">
        <ele>78</ele>
        <time>2019-11-10T09:11:22Z</time>
      </trkpt>
      <trkpt lat="43.4084" lon="6.55367">
        <ele>78</ele>
        <time>2019-11-10T09:11:30Z</time>
      </trkpt>
      <trkpt lat="43.4083" lon="6.55363">
        <ele>78.1</ele>
        <time>2019-11-10T09:11:40Z</time>
      </trkpt>
      <trkpt lat="43.40821" lon="6.5536">
        <ele>78.1</ele>
        <time>2019-11-10T09:11:48Z</time>
      </trkpt>
      <trkpt lat="43.40811" lon="6.55355">
        <ele>78.1</ele>
        <time>2019-11-10T09:11:56Z</time>
      </trkpt>
      <trkpt lat="43.40802" lon="6.5535">
        <ele>78.1</ele>
        <time>2019-11-10T09:12:05Z</time>
      </trkpt>
      <trkpt lat="43.40795" lon="6.55341">
        <ele>77.9</ele>
        <time>2019-11-10T09:12:14Z</time>
      </trkpt>
      <trkpt lat="43.40786" lon="6.55337">
        <ele>77.1</ele>
        <time>2019-11-10T09:13:35Z</time>
      </trkpt>
      <trkpt lat="43.40778" lon="6.5533">
        <ele>77.1</ele>
        <time>2019-11-10T09:13:48Z</time>
      </trkpt>
      <trkpt lat="43.40768" lon="6.55328">
        <ele>76.9</ele>
        <time>2019-11-10T09:14:25Z</time>
      </trkpt>
      <trkpt lat="43.40759" lon="6.55322">
        <ele>76.9</ele>
        <time>2019-11-10T09:14:57Z</time>
      </trkpt>
      <trkpt lat="43.4075" lon="6.5532">
        <ele>77</ele>
        <time>2019-11-10T09:15:21Z</time>
      </trkpt>
      <trkpt lat="43.40741" lon="6.55323">
        <ele>77.4</ele>
        <time>2019-11-10T09:15:50Z</time>
      </trkpt>
      <trkpt lat="43.40732" lon="6.55324">
        <ele>78.3</ele>
        <time>2019-11-10T09:16:02Z</time>
      </trkpt>
      <trkpt lat="43.40723" lon="6.55325">
        <ele>79.1</ele>
        <time>2019-11-10T09:16:13Z</time>
      </trkpt>
      <trkpt lat="43.40713" lon="6.55323">
        <ele>79.4</ele>
        <time>2019-11-10T09:16:22Z</time>
      </trkpt>
      <trkpt lat="43.40704" lon="6.55322">
        <ele>79.8</ele>
        <time>2019-11-10T09:16:34Z</time>
      </trkpt>
      <trkpt lat="43.40695" lon="6.55325">
        <ele>79.5</ele>
        <time>2019-11-10T09:16:50Z</time>
      </trkpt>
      <trkpt lat="43.40686" lon="6.55328">
        <ele>79.1</ele>
        <time>2019-11-10T09:17:10Z</time>
      </trkpt>
      <trkpt lat="43.40677" lon="6.55327">
        <ele>78.7</ele>
        <time>2019-11-10T09:17:31Z</time>
      </trkpt>
      <trkpt lat="43.40668" lon="6.55327">
        <ele>78.7</ele>
        <time>2019-11-10T09:17:57Z</time>
      </trkpt>
      <trkpt lat="43.40659" lon="6.55328">
        <ele>78.7</ele>
        <time>2019-11-10T09:18:18Z</time>
      </trkpt>
      <trkpt lat="43.4065" lon="6.55324">
        <ele>79.3</ele>
        <time>2019-11-10T09:19:34Z</time>
      </trkpt>
      <trkpt lat="43.40645" lon="6.55312">
        <ele>79.7</ele>
        <time>2019-11-10T09:19:52Z</time>
      </trkpt>
      <trkpt lat="43.40645" lon="6.553">
        <ele>79.9</ele>
        <time>2019-11-10T09:20:07Z</time>
      </trkpt>
      <trkpt lat="43.40642" lon="6.55288">
        <ele>80</ele>
        <time>2019-11-10T09:20:17Z</time>
      </trkpt>
      <trkpt lat="43.4064" lon="6.55276">
        <ele>80.4</ele>
        <time>2019-11-10T09:20:30Z</time>
      </trkpt>
      <trkpt lat="43.40634" lon="6.55266">
        <ele>80.6</ele>
        <time>2019-11-10T09:20:52Z</time>
      </trkpt>
      <trkpt lat="43.40631" lon="6.55254">
        <ele>80.5</ele>
        <time>2019-11-10T09:21:07Z</time>
      </trkpt>
      <trkpt lat="43.4063" lon="6.55242">
        <ele>80.4</ele>
        <time>2019-11-10T09:21:21Z</time>
      </trkpt>
      <trkpt lat="43.40628" lon="6.55229">
        <ele>80.7</ele>
        <time>2019-11-10T09:21:34Z</time>
      </trkpt>
      <trkpt lat="43.40623" lon="6.55219">
        <ele>80.9</ele>
        <time>2019-11-10T09:22:05Z</time>
      </trkpt>
      <trkpt lat="43.40619" lon="6.55207">
        <ele>81.2</ele>
        <time>2019-11-10T09:22:20Z</time>
      </trkpt>
      <trkpt lat="43.40615" lon="6.55195">
        <ele>81.3</ele>
        <time>2019-11-10T09:22:34Z</time>
      </trkpt>
      <trkpt lat="43.40608" lon="6.55186">
        <ele>81.9</ele>
        <time>2019-11-10T09:22:44Z</time>
      </trkpt>
      <trkpt lat="43.40599" lon="6.55185">
        <ele>82.2</ele>
        <time>2019-11-10T09:22:58Z</time>
      </trkpt>
      <trkpt lat="43.4059" lon="6.55181">
        <ele>82.4</ele>
        <time>2019-11-10T09:23:37Z</time>
      </trkpt>
      <trkpt lat="43.40586" lon="6.5517">
        <ele>83.1</ele>
        <time>2019-11-10T09:24:47Z</time>
      </trkpt>
      <trkpt lat="43.40581" lon="6.55158">
        <ele>83.3</ele>
        <time>2019-11-10T09:25:00Z</time>
      </trkpt>
      <trkpt lat="43.40576" lon="6.55147">
        <ele>83.8</ele>
        <time>2019-11-10T09:25:09Z</time>
      </trkpt>
      <trkpt lat="43.40571" lon="6.55136">
        <ele>84.5</ele>
        <time>2019-11-10T09:25:22Z</time>
      </trkpt>
      <trkpt lat="43.40566" lon="6.55125">
        <ele>85.5</ele>
        <time>2019-11-10T09:25:39Z</time>
      </trkpt>
      <trkpt lat="43.40563" lon="6.55114">
        <ele>87.3</ele>
        <time>2019-11-10T09:25:57Z</time>
      </trkpt>
      <trkpt lat="43.40556" lon="6.55105">
        <ele>89.3</ele>
        <time>2019-11-10T09:26:13Z</time>
      </trkpt>
      <trkpt lat="43.40548" lon="6.55098">
        <ele>91.7</ele>
        <time>2019-11-10T09:26:33Z</time>
      </trkpt>
      <trkpt lat="43.40542" lon="6.55087">
        <ele>94.3</ele>
        <time>2019-11-10T09:30:18Z</time>
      </trkpt>
      <trkpt lat="43.40538" lon="6.55076">
        <ele>94.8</ele>
        <time>2019-11-10T09:30:28Z</time>
      </trkpt>
      <trkpt lat="43.40533" lon="6.55064">
        <ele>96</ele>
        <time>2019-11-10T09:30:39Z</time>
      </trkpt>
      <trkpt lat="43.40528" lon="6.55053">
        <ele>97.1</ele>
        <time>2019-11-10T09:30:50Z</time>
      </trkpt>
      <trkpt lat="43.40525" lon="6.55041">
        <ele>98.8</ele>
        <time>2019-11-10T09:31:02Z</time>
      </trkpt>
      <trkpt lat="43.40522" lon="6.55028">
        <ele>100.3</ele>
        <time>2019-11-10T09:31:13Z</time>
      </trkpt>
      <trkpt lat="43.40517" lon="6.55017">
        <ele>101.2</ele>
        <time>2019-11-10T09:31:22Z</time>
      </trkpt>
      <trkpt lat="43.40514" lon="6.55005">
        <ele>103</ele>
        <time>2019-11-10T09:31:36Z</time>
      </trkpt>
      <trkpt lat="43.40511" lon="6.54993">
        <ele>103.9</ele>
        <time>2019-11-10T09:31:48Z</time>
      </trkpt>
      <trkpt lat="43.40507" lon="6.54982">
        <ele>106</ele>
        <time>2019-11-10T09:32:29Z</time>
      </trkpt>
      <trkpt lat="43.40504" lon="6.5497">
        <ele>106.2</ele>
        <time>2019-11-10T09:32:41Z</time>
      </trkpt>
      <trkpt lat="43.40509" lon="6.54959">
        <ele>105.8</ele>
        <time>2019-11-10T09:35:01Z</time>
      </trkpt>
      <trkpt lat="43.40514" lon="6.54948">
        <ele>105.1</ele>
        <time>2019-11-10T09:35:17Z</time>
      </trkpt>
      <trkpt lat="43.40519" lon="6.54937">
        <ele>103.9</ele>
        <time>2019-11-10T09:35:30Z</time>
      </trkpt>
      <trkpt lat="43.40526" lon="6.54929">
        <ele>102.6</ele>
        <time>2019-11-10T09:35:41Z</time>
      </trkpt>
      <trkpt lat="43.40532" lon="6.54919">
        <ele>101.4</ele>
        <time>2019-11-10T09:35:51Z</time>
      </trkpt>
      <trkpt lat="43.40535" lon="6.54907">
        <ele>100.3</ele>
        <time>2019-11-10T09:36:00Z</time>
      </trkpt>
      <trkpt lat="43.40535" lon="6.54895">
        <ele>99.3</ele>
        <time>2019-11-10T09:36:09Z</time>
      </trkpt>
      <trkpt lat="43.4053" lon="6.54882">
        <ele>98.4</ele>
        <time>2019-11-10T09:36:18Z</time>
      </trkpt>
      <trkpt lat="43.40524" lon="6.54872">
        <ele>97.3</ele>
        <time>2019-11-10T09:36:27Z</time>
      </trkpt>
      <trkpt lat="43.40517" lon="6.54864">
        <ele>95.8</ele>
        <time>2019-11-10T09:36:38Z</time>
      </trkpt>
      <trkpt lat="43.40509" lon="6.54859">
        <ele>94.5</ele>
        <time>2019-11-10T09:36:48Z</time>
      </trkpt>
      <trkpt lat="43.405" lon="6.54853">
        <ele>93.3</ele>
        <time>2019-11-10T09:36:59Z</time>
      </trkpt>
      <trkpt lat="43.40491" lon="6.5485">
        <ele>91.5</ele>
        <time>2019-11-10T09:37:27Z</time>
      </trkpt>
      <trkpt lat="43.40501" lon="6.54853">
        <ele>91.4</ele>
        <time>2019-11-10T09:40:31Z</time>
      </trkpt>
      <trkpt lat="43.4051" lon="6.54849">
        <ele>91.1</ele>
        <time>2019-11-10T09:40:41Z</time>
      </trkpt>
      <trkpt lat="43.40519" lon="6.54845">
        <ele>90.3</ele>
        <time>2019-11-10T09:40:51Z</time>
      </trkpt>
      <trkpt lat="43.40528" lon="6.5484">
        <ele>89.1</ele>
        <time>2019-11-10T09:41:02Z</time>
      </trkpt>
      <trkpt lat="43.40536" lon="6.54833">
        <ele>87.6</ele>
        <time>2019-11-10T09:41:12Z</time>
      </trkpt>
      <trkpt lat="43.40544" lon="6.54826">
        <ele>86.1</ele>
        <time>2019-11-10T09:41:24Z</time>
      </trkpt>
      <trkpt lat="43.4055" lon="6.54816">
        <ele>85.3</ele>
        <time>2019-11-10T09:41:35Z</time>
      </trkpt>
      <trkpt lat="43.40559" lon="6.54819">
        <ele>85.1</ele>
        <time>2019-11-10T09:42:13Z</time>
      </trkpt>
      <trkpt lat="43.40568" lon="6.5482">
        <ele>85.2</ele>
        <time>2019-11-10T09:42:26Z</time>
      </trkpt>
      <trkpt lat="43.40577" lon="6.54815">
        <ele>85.9</ele>
        <time>2019-11-10T09:42:36Z</time>
      </trkpt>
      <trkpt lat="43.40586" lon="6.54813">
        <ele>87</ele>
        <time>2019-11-10T09:42:50Z</time>
      </trkpt>
      <trkpt lat="43.40595" lon="6.5481">
        <ele>88.7</ele>
        <time>2019-11-10T09:43:05Z</time>
      </trkpt>
      <trkpt lat="43.40604" lon="6.54807">
        <ele>90.7</ele>
        <time>2019-11-10T09:43:20Z</time>
      </trkpt>
      <trkpt lat="43.40612" lon="6.54802">
        <ele>92.6</ele>
        <time>2019-11-10T09:43:34Z</time>
      </trkpt>
      <trkpt lat="43.40619" lon="6.54794">
        <ele>94.7</ele>
        <time>2019-11-10T09:43:47Z</time>
      </trkpt>
      <trkpt lat="43.40628" lon="6.54787">
        <ele>96.4</ele>
        <time>2019-11-10T09:43:59Z</time>
      </trkpt>
      <trkpt lat="43.40635" lon="6.54779">
        <ele>98.2</ele>
        <time>2019-11-10T09:44:13Z</time>
      </trkpt>
      <trkpt lat="43.40641" lon="6.54769">
        <ele>100</ele>
        <time>2019-11-10T09:44:28Z</time>
      </trkpt>
      <trkpt lat="43.40647" lon="6.54759">
        <ele>101</ele>
        <time>2019-11-10T09:44:41Z</time>
      </trkpt>
      <trkpt lat="43.40649" lon="6.54746">
        <ele>101.7</ele>
        <time>2019-11-10T09:44:52Z</time>
      </trkpt>
      <trkpt lat="43.40646" lon="6.54734">
        <ele>102.4</ele>
        <time>2019-11-10T09:45:04Z</time>
      </trkpt>
      <trkpt lat="43.40641" lon="6.54724">
        <ele>103.7</ele>
        <time>2019-11-10T09:45:18Z</time>
      </trkpt>
      <trkpt lat="43.40639" lon="6.54712">
        <ele>105</ele>
        <time>2019-11-10T09:45:29Z</time>
      </trkpt>
      <trkpt lat="43.40641" lon="6.54698">
        <ele>106.8</ele>
        <time>2019-11-10T09:46:15Z</time>
      </trkpt>
      <trkpt lat="43.40645" lon="6.54686">
        <ele>107</ele>
        <time>2019-11-10T09:46:24Z</time>
      </trkpt>
      <trkpt lat="43.40648" lon="6.54673">
        <ele>107.8</ele>
        <time>2019-11-10T09:46:42Z</time>
      </trkpt>
      <trkpt lat="43.40651" lon="6.5466">
        <ele>108</ele>
        <time>2019-11-10T09:46:50Z</time>
      </trkpt>
      <trkpt lat="43.40652" lon="6.54648">
        <ele>108.1</ele>
        <time>2019-11-10T09:47:00Z</time>
      </trkpt>
      <trkpt lat="43.40651" lon="6.54634">
        <ele>108.3</ele>
        <time>2019-11-10T09:47:11Z</time>
      </trkpt>
      <trkpt lat="43.40642" lon="6.54632">
        <ele>109</ele>
        <time>2019-11-10T09:47:23Z</time>
      </trkpt>
      <trkpt lat="43.40635" lon="6.54641">
        <ele>109.9</ele>
        <time>2019-11-10T09:47:34Z</time>
      </trkpt>
      <trkpt lat="43.40629" lon="6.54651">
        <ele>111.4</ele>
        <time>2019-11-10T09:47:47Z</time>
      </trkpt>
      <trkpt lat="43.40623" lon="6.5466">
        <ele>113</ele>
        <time>2019-11-10T09:47:58Z</time>
      </trkpt>
      <trkpt lat="43.40616" lon="6.5467">
        <ele>114.2</ele>
        <time>2019-11-10T09:48:09Z</time>
      </trkpt>
      <trkpt lat="43.4061" lon="6.54678">
        <ele>115</ele>
        <time>2019-11-10T09:48:19Z</time>
      </trkpt>
      <trkpt lat="43.40605" lon="6.54689">
        <ele>115.9</ele>
        <time>2019-11-10T09:48:37Z</time>
      </trkpt>
      <trkpt lat="43.40596" lon="6.54693">
        <ele>116.4</ele>
        <time>2019-11-10T09:49:33Z</time>
      </trkpt>
      <trkpt lat="43.4059" lon="6.54683">
        <ele>117.4</ele>
        <time>2019-11-10T09:49:47Z</time>
      </trkpt>
      <trkpt lat="43.40584" lon="6.54673">
        <ele>118.7</ele>
        <time>2019-11-10T09:50:04Z</time>
      </trkpt>
      <trkpt lat="43.40577" lon="6.54665">
        <ele>120.9</ele>
        <time>2019-11-10T09:50:21Z</time>
      </trkpt>
      <trkpt lat="43.4057" lon="6.54656">
        <ele>123.4</ele>
        <time>2019-11-10T09:50:41Z</time>
      </trkpt>
      <trkpt lat="43.40562" lon="6.54651">
        <ele>124.6</ele>
        <time>2019-11-10T09:50:57Z</time>
      </trkpt>
      <trkpt lat="43.40556" lon="6.54641">
        <ele>126.3</ele>
        <time>2019-11-10T09:51:17Z</time>
      </trkpt>
      <trkpt lat="43.40549" lon="6.54632">
        <ele>129.2</ele>
        <time>2019-11-10T09:51:37Z</time>
      </trkpt>
      <trkpt lat="43.40541" lon="6.54627">
        <ele>131.1</ele>
        <time>2019-11-10T09:51:52Z</time>
      </trkpt>
      <trkpt lat="43.40531" lon="6.54628">
        <ele>133.5</ele>
        <time>2019-11-10T09:52:10Z</time>
      </trkpt>
      <trkpt lat="43.40522" lon="6.54631">
        <ele>135.2</ele>
        <time>2019-11-10T09:52:25Z</time>
      </trkpt>
      <trkpt lat="43.40514" lon="6.54634">
        <ele>137</ele>
        <time>2019-11-10T09:52:40Z</time>
      </trkpt>
      <trkpt lat="43.40504" lon="6.54637">
        <ele>139.9</ele>
        <time>2019-11-10T09:53:00Z</time>
      </trkpt>
      <trkpt lat="43.40496" lon="6.54643">
        <ele>141.6</ele>
        <time>2019-11-10T09:53:12Z</time>
      </trkpt>
      <trkpt lat="43.40488" lon="6.54651">
        <ele>142.9</ele>
        <time>2019-11-10T09:53:22Z</time>
      </trkpt>
      <trkpt lat="43.40482" lon="6.54641">
        <ele>146.8</ele>
        <time>2019-11-10T09:57:40Z</time>
      </trkpt>
      <trkpt lat="43.40473" lon="6.54637">
        <ele>146.7</ele>
        <time>2019-11-10T09:57:49Z</time>
      </trkpt>
      <trkpt lat="43.40464" lon="6.54632">
        <ele>146.6</ele>
        <time>2019-11-10T09:57:58Z</time>
      </trkpt>
      <trkpt lat="43.40459" lon="6.54622">
        <ele>146.9</ele>
        <time>2019-11-10T09:58:10Z</time>
      </trkpt>
      <trkpt lat="43.40467" lon="6.54614">
        <ele>147.7</ele>
        <time>2019-11-10T09:58:23Z</time>
      </trkpt>
      <trkpt lat="43.40475" lon="6.54607">
        <ele>149.2</ele>
        <time>2019-11-10T09:58:35Z</time>
      </trkpt>
      <trkpt lat="43.40484" lon="6.54601">
        <ele>150.9</ele>
        <time>2019-11-10T09:58:48Z</time>
      </trkpt>
      <trkpt lat="43.40491" lon="6.54592">
        <ele>152.3</ele>
        <time>2019-11-10T09:58:59Z</time>
      </trkpt>
      <trkpt lat="43.40497" lon="6.54581">
        <ele>153.9</ele>
        <time>2019-11-10T09:59:11Z</time>
      </trkpt>
      <trkpt lat="43.40503" lon="6.54572">
        <ele>155.7</ele>
        <time>2019-11-10T09:59:25Z</time>
      </trkpt>
      <trkpt lat="43.4051" lon="6.54564">
        <ele>158.1</ele>
        <time>2019-11-10T09:59:40Z</time>
      </trkpt>
      <trkpt lat="43.40518" lon="6.54556">
        <ele>159.8</ele>
        <time>2019-11-10T09:59:53Z</time>
      </trkpt>
      <trkpt lat="43.40527" lon="6.5455">
        <ele>161.2</ele>
        <time>2019-11-10T10:00:04Z</time>
      </trkpt>
      <trkpt lat="43.40535" lon="6.54543">
        <ele>162.4</ele>
        <time>2019-11-10T10:00:15Z</time>
      </trkpt>
      <trkpt lat="43.40542" lon="6.54535">
        <ele>163.5</ele>
        <time>2019-11-10T10:00:26Z</time>
      </trkpt>
      <trkpt lat="43.40548" lon="6.54525">
        <ele>165.1</ele>
        <time>2019-11-10T10:00:38Z</time>
      </trkpt>
      <trkpt lat="43.40554" lon="6.54515">
        <ele>166.3</ele>
        <time>2019-11-10T10:00:48Z</time>
      </trkpt>
      <trkpt lat="43.40559" lon="6.54503">
        <ele>167.8</ele>
        <time>2019-11-10T10:00:59Z</time>
      </trkpt>
      <trkpt lat="43.40562" lon="6.54491">
        <ele>169.6</ele>
        <time>2019-11-10T10:01:12Z</time>
      </trkpt>
      <trkpt lat="43.40564" lon="6.54479">
        <ele>171</ele>
        <time>2019-11-10T10:01:23Z</time>
      </trkpt>
      <trkpt lat="43.40567" lon="6.54466">
        <ele>172.7</ele>
        <time>2019-11-10T10:01:35Z</time>
      </trkpt>
      <trkpt lat="43.40566" lon="6.54454">
        <ele>174</ele>
        <time>2019-11-10T10:01:46Z</time>
      </trkpt>
      <trkpt lat="43.40568" lon="6.5444">
        <ele>175.3</ele>
        <time>2019-11-10T10:01:56Z</time>
      </trkpt>
      <trkpt lat="43.40568" lon="6.54427">
        <ele>176.9</ele>
        <time>2019-11-10T10:02:07Z</time>
      </trkpt>
      <trkpt lat="43.40569" lon="6.54414">
        <ele>178.3</ele>
        <time>2019-11-10T10:02:19Z</time>
      </trkpt>
      <trkpt lat="43.4057" lon="6.54401">
        <ele>179.8</ele>
        <time>2019-11-10T10:02:31Z</time>
      </trkpt>
      <trkpt lat="43.40572" lon="6.54389">
        <ele>180.8</ele>
        <time>2019-11-10T10:02:40Z</time>
      </trkpt>
      <trkpt lat="43.40572" lon="6.54376">
        <ele>181.9</ele>
        <time>2019-11-10T10:02:49Z</time>
      </trkpt>
      <trkpt lat="43.40576" lon="6.54363">
        <ele>183.2</ele>
        <time>2019-11-10T10:03:00Z</time>
      </trkpt>
      <trkpt lat="43.40574" lon="6.5435">
        <ele>186.4</ele>
        <time>2019-11-10T10:08:12Z</time>
      </trkpt>
      <trkpt lat="43.40572" lon="6.54338">
        <ele>186.8</ele>
        <time>2019-11-10T10:08:25Z</time>
      </trkpt>
      <trkpt lat="43.40571" lon="6.54325">
        <ele>187.7</ele>
        <time>2019-11-10T10:08:35Z</time>
      </trkpt>
      <trkpt lat="43.4057" lon="6.54311">
        <ele>188.4</ele>
        <time>2019-11-10T10:08:44Z</time>
      </trkpt>
      <trkpt lat="43.40569" lon="6.54298">
        <ele>188.9</ele>
        <time>2019-11-10T10:08:53Z</time>
      </trkpt>
      <trkpt lat="43.40568" lon="6.54285">
        <ele>189.6</ele>
        <time>2019-11-10T10:09:02Z</time>
      </trkpt>
      <trkpt lat="43.4057" lon="6.54272">
        <ele>190.4</ele>
        <time>2019-11-10T10:09:10Z</time>
      </trkpt>
      <trkpt lat="43.40568" lon="6.54258">
        <ele>191.5</ele>
        <time>2019-11-10T10:09:20Z</time>
      </trkpt>
      <trkpt lat="43.40565" lon="6.54245">
        <ele>192.4</ele>
        <time>2019-11-10T10:09:29Z</time>
      </trkpt>
      <trkpt lat="43.40563" lon="6.54232">
        <ele>193.6</ele>
        <time>2019-11-10T10:09:38Z</time>
      </trkpt>
      <trkpt lat="43.40561" lon="6.54219">
        <ele>194.8</ele>
        <time>2019-11-10T10:09:46Z</time>
      </trkpt>
      <trkpt lat="43.40558" lon="6.54206">
        <ele>195.4</ele>
        <time>2019-11-10T10:09:53Z</time>
      </trkpt>
      <trkpt lat="43.40557" lon="6.54194">
        <ele>196</ele>
        <time>2019-11-10T10:10:02Z</time>
      </trkpt>
      <trkpt lat="43.4056" lon="6.54182">
        <ele>197.4</ele>
        <time>2019-11-10T10:10:11Z</time>
      </trkpt>
      <trkpt lat="43.40562" lon="6.5417">
        <ele>198.7</ele>
        <time>2019-11-10T10:10:21Z</time>
      </trkpt>
      <trkpt lat="43.4057" lon="6.54163">
        <ele>199.3</ele>
        <time>2019-11-10T10:10:34Z</time>
      </trkpt>
      <trkpt lat="43.40578" lon="6.54155">
        <ele>200.5</ele>
        <time>2019-11-10T10:10:46Z</time>
      </trkpt>
      <trkpt lat="43.40586" lon="6.54149">
        <ele>201.8</ele>
        <time>2019-11-10T10:10:57Z</time>
      </trkpt>
      <trkpt lat="43.40595" lon="6.54142">
        <ele>203.3</ele>
        <time>2019-11-10T10:11:08Z</time>
      </trkpt>
      <trkpt lat="43.40604" lon="6.54137">
        <ele>205.2</ele>
        <time>2019-11-10T10:11:20Z</time>
      </trkpt>
      <trkpt lat="43.40612" lon="6.54133">
        <ele>207.6</ele>
        <time>2019-11-10T10:11:32Z</time>
      </trkpt>
      <trkpt lat="43.40621" lon="6.5413">
        <ele>209.5</ele>
        <time>2019-11-10T10:11:43Z</time>
      </trkpt>
      <trkpt lat="43.4063" lon="6.54128">
        <ele>211.8</ele>
        <time>2019-11-10T10:11:56Z</time>
      </trkpt>
      <trkpt lat="43.4064" lon="6.54128">
        <ele>214.1</ele>
        <time>2019-11-10T10:12:08Z</time>
      </trkpt>
      <trkpt lat="43.40648" lon="6.54124">
        <ele>215.9</ele>
        <time>2019-11-10T10:12:18Z</time>
      </trkpt>
      <trkpt lat="43.40657" lon="6.54119">
        <ele>217.7</ele>
        <time>2019-11-10T10:12:29Z</time>
      </trkpt>
      <trkpt lat="43.40666" lon="6.54112">
        <ele>219.4</ele>
        <time>2019-11-10T10:12:39Z</time>
      </trkpt>
      <trkpt lat="43.40674" lon="6.54107">
        <ele>221.3</ele>
        <time>2019-11-10T10:12:49Z</time>
      </trkpt>
      <trkpt lat="43.40681" lon="6.541">
        <ele>222.4</ele>
        <time>2019-11-10T10:12:57Z</time>
      </trkpt>
      <trkpt lat="43.4069" lon="6.54094">
        <ele>223.4</ele>
        <time>2019-11-10T10:13:04Z</time>
      </trkpt>
      <trkpt lat="43.40699" lon="6.54101">
        <ele>224</ele>
        <time>2019-11-10T10:13:11Z</time>
      </trkpt>
      <trkpt lat="43.40707" lon="6.54106">
        <ele>224.7</ele>
        <time>2019-11-10T10:13:21Z</time>
      </trkpt>
      <trkpt lat="43.40716" lon="6.54111">
        <ele>225.5</ele>
        <time>2019-11-10T10:13:30Z</time>
      </trkpt>
      <trkpt lat="43.40726" lon="6.54113">
        <ele>226.4</ele>
        <time>2019-11-10T10:13:38Z</time>
      </trkpt>
      <trkpt lat="43.40735" lon="6.54115">
        <ele>227.3</ele>
        <time>2019-11-10T10:13:46Z</time>
      </trkpt>
      <trkpt lat="43.40744" lon="6.54118">
        <ele>228.5</ele>
        <time>2019-11-10T10:13:55Z</time>
      </trkpt>
      <trkpt lat="43.40754" lon="6.5412">
        <ele>229.8</ele>
        <time>2019-11-10T10:14:04Z</time>
      </trkpt>
      <trkpt lat="43.40763" lon="6.54123">
        <ele>231.1</ele>
        <time>2019-11-10T10:14:13Z</time>
      </trkpt>
      <trkpt lat="43.40772" lon="6.54126">
        <ele>232.2</ele>
        <time>2019-11-10T10:14:21Z</time>
      </trkpt>
      <trkpt lat="43.4078" lon="6.54131">
        <ele>233.7</ele>
        <time>2019-11-10T10:14:31Z</time>
      </trkpt>
      <trkpt lat="43.40789" lon="6.54137">
        <ele>234.9</ele>
        <time>2019-11-10T10:14:40Z</time>
      </trkpt>
      <trkpt lat="43.40797" lon="6.54143">
        <ele>236</ele>
        <time>2019-11-10T10:14:49Z</time>
      </trkpt>
      <trkpt lat="43.40806" lon="6.54148">
        <ele>237.3</ele>
        <time>2019-11-10T10:14:59Z</time>
      </trkpt>
      <trkpt lat="43.4081" lon="6.54137">
        <ele>239.9</ele>
        <time>2019-11-10T10:16:08Z</time>
      </trkpt>
      <trkpt lat="43.40813" lon="6.54149">
        <ele>240.5</ele>
        <time>2019-11-10T10:17:17Z</time>
      </trkpt>
      <trkpt lat="43.4082" lon="6.54158">
        <ele>240.3</ele>
        <time>2019-11-10T10:17:28Z</time>
      </trkpt>
      <trkpt lat="43.40827" lon="6.54167">
        <ele>239.9</ele>
        <time>2019-11-10T10:17:41Z</time>
      </trkpt>
      <trkpt lat="43.40834" lon="6.54175">
        <ele>239.6</ele>
        <time>2019-11-10T10:17:50Z</time>
      </trkpt>
      <trkpt lat="43.40841" lon="6.54183">
        <ele>239.1</ele>
        <time>2019-11-10T10:18:01Z</time>
      </trkpt>
      <trkpt lat="43.40849" lon="6.54189">
        <ele>237.8</ele>
        <time>2019-11-10T10:18:27Z</time>
      </trkpt>
      <trkpt lat="43.40856" lon="6.54198">
        <ele>237.2</ele>
        <time>2019-11-10T10:18:41Z</time>
      </trkpt>
      <trkpt lat="43.40861" lon="6.54208">
        <ele>236.5</ele>
        <time>2019-11-10T10:19:16Z</time>
      </trkpt>
      <trkpt lat="43.40866" lon="6.5422">
        <ele>236</ele>
        <time>2019-11-10T10:19:27Z</time>
      </trkpt>
      <trkpt lat="43.40874" lon="6.54225">
        <ele>235.4</ele>
        <time>2019-11-10T10:20:01Z</time>
      </trkpt>
      <trkpt lat="43.4088" lon="6.54235">
        <ele>234.9</ele>
        <time>2019-11-10T10:20:13Z</time>
      </trkpt>
      <trkpt lat="43.40882" lon="6.54248">
        <ele>233.8</ele>
        <time>2019-11-10T10:20:34Z</time>
      </trkpt>
      <trkpt lat="43.40885" lon="6.54261">
        <ele>233.5</ele>
        <time>2019-11-10T10:20:55Z</time>
      </trkpt>
      <trkpt lat="43.40889" lon="6.54273">
        <ele>233.1</ele>
        <time>2019-11-10T10:21:05Z</time>
      </trkpt>
      <trkpt lat="43.40891" lon="6.54286">
        <ele>232.3</ele>
        <time>2019-11-10T10:21:16Z</time>
      </trkpt>
      <trkpt lat="43.40889" lon="6.54298">
        <ele>231.4</ele>
        <time>2019-11-10T10:21:25Z</time>
      </trkpt>
      <trkpt lat="43.40885" lon="6.5431">
        <ele>230.3</ele>
        <time>2019-11-10T10:21:38Z</time>
      </trkpt>
      <trkpt lat="43.40882" lon="6.54323">
        <ele>229.9</ele>
        <time>2019-11-10T10:21:45Z</time>
      </trkpt>
      <trkpt lat="43.40883" lon="6.54336">
        <ele>229.6</ele>
        <time>2019-11-10T10:21:53Z</time>
      </trkpt>
      <trkpt lat="43.40887" lon="6.5435">
        <ele>229.5</ele>
        <time>2019-11-10T10:22:00Z</time>
      </trkpt>
      <trkpt lat="43.40891" lon="6.54363">
        <ele>229.5</ele>
        <time>2019-11-10T10:22:08Z</time>
      </trkpt>
      <trkpt lat="43.40894" lon="6.54374">
        <ele>229.8</ele>
        <time>2019-11-10T10:22:16Z</time>
      </trkpt>
      <trkpt lat="43.409" lon="6.54385">
        <ele>229.9</ele>
        <time>2019-11-10T10:22:23Z</time>
      </trkpt>
      <trkpt lat="43.40908" lon="6.54394">
        <ele>230.1</ele>
        <time>2019-11-10T10:22:31Z</time>
      </trkpt>
      <trkpt lat="43.40917" lon="6.54398">
        <ele>230.2</ele>
        <time>2019-11-10T10:22:39Z</time>
      </trkpt>
      <trkpt lat="43.40926" lon="6.54399">
        <ele>230.4</ele>
        <time>2019-11-10T10:22:46Z</time>
      </trkpt>
      <trkpt lat="43.40935" lon="6.54403">
        <ele>230.6</ele>
        <time>2019-11-10T10:22:54Z</time>
      </trkpt>
      <trkpt lat="43.40944" lon="6.54407">
        <ele>230.8</ele>
        <time>2019-11-10T10:23:02Z</time>
      </trkpt>
      <trkpt lat="43.40953" lon="6.54411">
        <ele>230.9</ele>
        <time>2019-11-10T10:23:11Z</time>
      </trkpt>
      <trkpt lat="43.40962" lon="6.54417">
        <ele>230.9</ele>
        <time>2019-11-10T10:23:19Z</time>
      </trkpt>
      <trkpt lat="43.40971" lon="6.54422">
        <ele>230.5</ele>
        <time>2019-11-10T10:23:27Z</time>
      </trkpt>
      <trkpt lat="43.40979" lon="6.54428">
        <ele>230.1</ele>
        <time>2019-11-10T10:23:35Z</time>
      </trkpt>
      <trkpt lat="43.40987" lon="6.54434">
        <ele>229.9</ele>
        <time>2019-11-10T10:23:43Z</time>
      </trkpt>
      <trkpt lat="43.40996" lon="6.54439">
        <ele>229.7</ele>
        <time>2019-11-10T10:23:52Z</time>
      </trkpt>
      <trkpt lat="43.41005" lon="6.54444">
        <ele>229.7</ele>
        <time>2019-11-10T10:24:17Z</time>
      </trkpt>
      <trkpt lat="43.41006" lon="6.54432">
        <ele>229.6</ele>
        <time>2019-11-10T10:24:44Z</time>
      </trkpt>
      <trkpt lat="43.41006" lon="6.54444">
        <ele>232.8</ele>
        <time>2019-11-10T10:50:49Z</time>
      </trkpt>
      <trkpt lat="43.41014" lon="6.54449">
        <ele>232.9</ele>
        <time>2019-11-10T10:51:02Z</time>
      </trkpt>
      <trkpt lat="43.4102" lon="6.5446">
        <ele>233</ele>
        <time>2019-11-10T10:51:15Z</time>
      </trkpt>
      <trkpt lat="43.41028" lon="6.54467">
        <ele>232.8</ele>
        <time>2019-11-10T10:51:25Z</time>
      </trkpt>
      <trkpt lat="43.41036" lon="6.54475">
        <ele>232.9</ele>
        <time>2019-11-10T10:51:34Z</time>
      </trkpt>
      <trkpt lat="43.4104" lon="6.54487">
        <ele>233.4</ele>
        <time>2019-11-10T10:51:46Z</time>
      </trkpt>
      <trkpt lat="43.41049" lon="6.5449">
        <ele>234.3</ele>
        <time>2019-11-10T10:52:59Z</time>
      </trkpt>
      <trkpt lat="43.41056" lon="6.54497">
        <ele>234.3</ele>
        <time>2019-11-10T10:53:08Z</time>
      </trkpt>
      <trkpt lat="43.41064" lon="6.54506">
        <ele>234.9</ele>
        <time>2019-11-10T10:53:20Z</time>
      </trkpt>
      <trkpt lat="43.4107" lon="6.54516">
        <ele>234.9</ele>
        <time>2019-11-10T10:53:28Z</time>
      </trkpt>
      <trkpt lat="43.41077" lon="6.54523">
        <ele>234.6</ele>
        <time>2019-11-10T10:53:39Z</time>
      </trkpt>
      <trkpt lat="43.41084" lon="6.54533">
        <ele>233.9</ele>
        <time>2019-11-10T10:53:50Z</time>
      </trkpt>
      <trkpt lat="43.41091" lon="6.54542">
        <ele>233.2</ele>
        <time>2019-11-10T10:54:01Z</time>
      </trkpt>
      <trkpt lat="43.41098" lon="6.54552">
        <ele>232</ele>
        <time>2019-11-10T10:54:12Z</time>
      </trkpt>
      <trkpt lat="43.41107" lon="6.54557">
        <ele>230.8</ele>
        <time>2019-11-10T10:54:23Z</time>
      </trkpt>
      <trkpt lat="43.41117" lon="6.5456">
        <ele>229.7</ele>
        <time>2019-11-10T10:54:32Z</time>
      </trkpt>
      <trkpt lat="43.41127" lon="6.54561">
        <ele>228.9</ele>
        <time>2019-11-10T10:54:43Z</time>
      </trkpt>
      <trkpt lat="43.41136" lon="6.54563">
        <ele>228.6</ele>
        <time>2019-11-10T10:54:52Z</time>
      </trkpt>
      <trkpt lat="43.41145" lon="6.54567">
        <ele>228.4</ele>
        <time>2019-11-10T10:55:02Z</time>
      </trkpt>
      <trkpt lat="43.41153" lon="6.54573">
        <ele>228.3</ele>
        <time>2019-11-10T10:55:13Z</time>
      </trkpt>
      <trkpt lat="43.41162" lon="6.54578">
        <ele>228.5</ele>
        <time>2019-11-10T10:55:22Z</time>
      </trkpt>
      <trkpt lat="43.41171" lon="6.54582">
        <ele>229</ele>
        <time>2019-11-10T10:55:30Z</time>
      </trkpt>
      <trkpt lat="43.4118" lon="6.54588">
        <ele>229.5</ele>
        <time>2019-11-10T10:55:39Z</time>
      </trkpt>
      <trkpt lat="43.41188" lon="6.54596">
        <ele>230.4</ele>
        <time>2019-11-10T10:55:48Z</time>
      </trkpt>
      <trkpt lat="43.41193" lon="6.54605">
        <ele>231.3</ele>
        <time>2019-11-10T10:55:58Z</time>
      </trkpt>
      <trkpt lat="43.41197" lon="6.54617">
        <ele>231.5</ele>
        <time>2019-11-10T10:56:14Z</time>
      </trkpt>
      <trkpt lat="43.41203" lon="6.54628">
        <ele>231.6</ele>
        <time>2019-11-10T10:56:24Z</time>
      </trkpt>
      <trkpt lat="43.41212" lon="6.54633">
        <ele>231.7</ele>
        <time>2019-11-10T10:56:34Z</time>
      </trkpt>
      <trkpt lat="43.41221" lon="6.54636">
        <ele>231.8</ele>
        <time>2019-11-10T10:56:44Z</time>
      </trkpt>
      <trkpt lat="43.41231" lon="6.54637">
        <ele>231.8</ele>
        <time>2019-11-10T10:56:53Z</time>
      </trkpt>
      <trkpt lat="43.4124" lon="6.54637">
        <ele>231.8</ele>
        <time>2019-11-10T10:56:58Z</time>
      </trkpt>
      <trkpt lat="43.41249" lon="6.54639">
        <ele>231.7</ele>
        <time>2019-11-10T10:57:05Z</time>
      </trkpt>
      <trkpt lat="43.41258" lon="6.54635">
        <ele>232</ele>
        <time>2019-11-10T10:57:24Z</time>
      </trkpt>
      <trkpt lat="43.41268" lon="6.54636">
        <ele>232.6</ele>
        <time>2019-11-10T10:57:49Z</time>
      </trkpt>
      <trkpt lat="43.41277" lon="6.54634">
        <ele>233</ele>
        <time>2019-11-10T10:59:16Z</time>
      </trkpt>
      <trkpt lat="43.41276" lon="6.54647">
        <ele>233</ele>
        <time>2019-11-10T10:59:56Z</time>
      </trkpt>
      <trkpt lat="43.41274" lon="6.54661">
        <ele>232.6</ele>
        <time>2019-11-10T11:00:08Z</time>
      </trkpt>
      <trkpt lat="43.41272" lon="6.54673">
        <ele>232.3</ele>
        <time>2019-11-10T11:00:18Z</time>
      </trkpt>
      <trkpt lat="43.41271" lon="6.54686">
        <ele>231.5</ele>
        <time>2019-11-10T11:00:32Z</time>
      </trkpt>
      <trkpt lat="43.41271" lon="6.54699">
        <ele>231.4</ele>
        <time>2019-11-10T11:00:40Z</time>
      </trkpt>
      <trkpt lat="43.41277" lon="6.54708">
        <ele>231.5</ele>
        <time>2019-11-10T11:00:48Z</time>
      </trkpt>
      <trkpt lat="43.41285" lon="6.54715">
        <ele>231.8</ele>
        <time>2019-11-10T11:00:55Z</time>
      </trkpt>
      <trkpt lat="43.41292" lon="6.54724">
        <ele>232</ele>
        <time>2019-11-10T11:01:03Z</time>
      </trkpt>
      <trkpt lat="43.413" lon="6.5473">
        <ele>231.7</ele>
        <time>2019-11-10T11:01:16Z</time>
      </trkpt>
      <trkpt lat="43.41308" lon="6.54737">
        <ele>231.6</ele>
        <time>2019-11-10T11:01:26Z</time>
      </trkpt>
      <trkpt lat="43.41317" lon="6.54743">
        <ele>231.5</ele>
        <time>2019-11-10T11:01:35Z</time>
      </trkpt>
      <trkpt lat="43.41325" lon="6.5475">
        <ele>231</ele>
        <time>2019-11-10T11:01:45Z</time>
      </trkpt>
      <trkpt lat="43.41333" lon="6.54758">
        <ele>230.8</ele>
        <time>2019-11-10T11:01:51Z</time>
      </trkpt>
      <trkpt lat="43.41341" lon="6.54766">
        <ele>230.6</ele>
        <time>2019-11-10T11:01:59Z</time>
      </trkpt>
      <trkpt lat="43.41348" lon="6.54774">
        <ele>230.3</ele>
        <time>2019-11-10T11:02:07Z</time>
      </trkpt>
      <trkpt lat="43.41356" lon="6.54782">
        <ele>230</ele>
        <time>2019-11-10T11:02:14Z</time>
      </trkpt>
      <trkpt lat="43.41363" lon="6.54789">
        <ele>229.6</ele>
        <time>2019-11-10T11:02:22Z</time>
      </trkpt>
      <trkpt lat="43.4137" lon="6.54799">
        <ele>229.2</ele>
        <time>2019-11-10T11:02:31Z</time>
      </trkpt>
      <trkpt lat="43.41378" lon="6.54808">
        <ele>228.6</ele>
        <time>2019-11-10T11:02:40Z</time>
      </trkpt>
      <trkpt lat="43.41386" lon="6.54813">
        <ele>228.1</ele>
        <time>2019-11-10T11:02:47Z</time>
      </trkpt>
      <trkpt lat="43.41393" lon="6.54821">
        <ele>227.5</ele>
        <time>2019-11-10T11:02:56Z</time>
      </trkpt>
      <trkpt lat="43.41402" lon="6.54826">
        <ele>227.2</ele>
        <time>2019-11-10T11:03:05Z</time>
      </trkpt>
      <trkpt lat="43.41412" lon="6.5483">
        <ele>227.1</ele>
        <time>2019-11-10T11:03:12Z</time>
      </trkpt>
      <trkpt lat="43.4142" lon="6.54836">
        <ele>226.9</ele>
        <time>2019-11-10T11:03:22Z</time>
      </trkpt>
      <trkpt lat="43.41428" lon="6.54841">
        <ele>226.7</ele>
        <time>2019-11-10T11:03:31Z</time>
      </trkpt>
      <trkpt lat="43.41438" lon="6.54845">
        <ele>226.2</ele>
        <time>2019-11-10T11:03:39Z</time>
      </trkpt>
      <trkpt lat="43.41447" lon="6.54845">
        <ele>225.5</ele>
        <time>2019-11-10T11:03:47Z</time>
      </trkpt>
      <trkpt lat="43.41456" lon="6.54844">
        <ele>224.8</ele>
        <time>2019-11-10T11:03:54Z</time>
      </trkpt>
      <trkpt lat="43.41465" lon="6.54845">
        <ele>224.2</ele>
        <time>2019-11-10T11:04:02Z</time>
      </trkpt>
      <trkpt lat="43.41475" lon="6.5485">
        <ele>223.6</ele>
        <time>2019-11-10T11:04:11Z</time>
      </trkpt>
      <trkpt lat="43.41483" lon="6.54855">
        <ele>222.8</ele>
        <time>2019-11-10T11:04:20Z</time>
      </trkpt>
      <trkpt lat="43.41491" lon="6.54861">
        <ele>222.1</ele>
        <time>2019-11-10T11:04:28Z</time>
      </trkpt>
      <trkpt lat="43.415" lon="6.54865">
        <ele>221.4</ele>
        <time>2019-11-10T11:04:36Z</time>
      </trkpt>
      <trkpt lat="43.41508" lon="6.54872">
        <ele>220.7</ele>
        <time>2019-11-10T11:04:44Z</time>
      </trkpt>
      <trkpt lat="43.41516" lon="6.54879">
        <ele>220.2</ele>
        <time>2019-11-10T11:04:52Z</time>
      </trkpt>
      <trkpt lat="43.41523" lon="6.54887">
        <ele>217.9</ele>
        <time>2019-11-10T11:06:35Z</time>
      </trkpt>
      <trkpt lat="43.41528" lon="6.54897">
        <ele>218.5</ele>
        <time>2019-11-10T11:11:36Z</time>
      </trkpt>
      <trkpt lat="43.41536" lon="6.54906">
        <ele>217.7</ele>
        <time>2019-11-10T11:11:49Z</time>
      </trkpt>
      <trkpt lat="43.41542" lon="6.54916">
        <ele>216.8</ele>
        <time>2019-11-10T11:11:58Z</time>
      </trkpt>
      <trkpt lat="43.4155" lon="6.54922">
        <ele>216</ele>
        <time>2019-11-10T11:12:07Z</time>
      </trkpt>
      <trkpt lat="43.41559" lon="6.54927">
        <ele>215.1</ele>
        <time>2019-11-10T11:12:17Z</time>
      </trkpt>
      <trkpt lat="43.41567" lon="6.54934">
        <ele>214</ele>
        <time>2019-11-10T11:12:27Z</time>
      </trkpt>
      <trkpt lat="43.41574" lon="6.54941">
        <ele>212.4</ele>
        <time>2019-11-10T11:12:41Z</time>
      </trkpt>
      <trkpt lat="43.41583" lon="6.54948">
        <ele>210.9</ele>
        <time>2019-11-10T11:13:01Z</time>
      </trkpt>
      <trkpt lat="43.41591" lon="6.54955">
        <ele>209.8</ele>
        <time>2019-11-10T11:13:10Z</time>
      </trkpt>
      <trkpt lat="43.416" lon="6.54957">
        <ele>208.9</ele>
        <time>2019-11-10T11:13:20Z</time>
      </trkpt>
      <trkpt lat="43.41609" lon="6.54956">
        <ele>207.7</ele>
        <time>2019-11-10T11:13:32Z</time>
      </trkpt>
      <trkpt lat="43.41619" lon="6.54954">
        <ele>206.2</ele>
        <time>2019-11-10T11:13:45Z</time>
      </trkpt>
      <trkpt lat="43.41628" lon="6.54953">
        <ele>205.2</ele>
        <time>2019-11-10T11:13:57Z</time>
      </trkpt>
      <trkpt lat="43.41637" lon="6.54954">
        <ele>204</ele>
        <time>2019-11-10T11:14:08Z</time>
      </trkpt>
      <trkpt lat="43.41645" lon="6.5496">
        <ele>202.3</ele>
        <time>2019-11-10T11:14:24Z</time>
      </trkpt>
      <trkpt lat="43.41652" lon="6.54969">
        <ele>199.8</ele>
        <time>2019-11-10T11:14:41Z</time>
      </trkpt>
      <trkpt lat="43.41658" lon="6.54979">
        <ele>198.1</ele>
        <time>2019-11-10T11:14:54Z</time>
      </trkpt>
      <trkpt lat="43.41665" lon="6.54989">
        <ele>197.3</ele>
        <time>2019-11-10T11:15:03Z</time>
      </trkpt>
      <trkpt lat="43.41657" lon="6.54995">
        <ele>195.7</ele>
        <time>2019-11-10T11:15:18Z</time>
      </trkpt>
      <trkpt lat="43.41648" lon="6.54991">
        <ele>194.1</ele>
        <time>2019-11-10T11:15:37Z</time>
      </trkpt>
      <trkpt lat="43.41638" lon="6.54989">
        <ele>193</ele>
        <time>2019-11-10T11:15:49Z</time>
      </trkpt>
      <trkpt lat="43.41629" lon="6.54992">
        <ele>192.5</ele>
        <time>2019-11-10T11:15:58Z</time>
      </trkpt>
      <trkpt lat="43.41637" lon="6.55">
        <ele>191.4</ele>
        <time>2019-11-10T11:16:08Z</time>
      </trkpt>
      <trkpt lat="43.41644" lon="6.55009">
        <ele>190.3</ele>
        <time>2019-11-10T11:16:17Z</time>
      </trkpt>
      <trkpt lat="43.41649" lon="6.5502">
        <ele>189</ele>
        <time>2019-11-10T11:16:27Z</time>
      </trkpt>
      <trkpt lat="43.41654" lon="6.55031">
        <ele>187.2</ele>
        <time>2019-11-10T11:16:39Z</time>
      </trkpt>
      <trkpt lat="43.41658" lon="6.55042">
        <ele>185.1</ele>
        <time>2019-11-10T11:16:51Z</time>
      </trkpt>
      <trkpt lat="43.41664" lon="6.55053">
        <ele>183.4</ele>
        <time>2019-11-10T11:17:03Z</time>
      </trkpt>
      <trkpt lat="43.41671" lon="6.55062">
        <ele>181.9</ele>
        <time>2019-11-10T11:17:13Z</time>
      </trkpt>
      <trkpt lat="43.4168" lon="6.55066">
        <ele>180.1</ele>
        <time>2019-11-10T11:17:24Z</time>
      </trkpt>
      <trkpt lat="43.41689" lon="6.55067">
        <ele>178.8</ele>
        <time>2019-11-10T11:17:34Z</time>
      </trkpt>
      <trkpt lat="43.41698" lon="6.55064">
        <ele>177.6</ele>
        <time>2019-11-10T11:17:44Z</time>
      </trkpt>
      <trkpt lat="43.41705" lon="6.55056">
        <ele>176</ele>
        <time>2019-11-10T11:18:02Z</time>
      </trkpt>
      <trkpt lat="43.41714" lon="6.55052">
        <ele>175.2</ele>
        <time>2019-11-10T11:18:11Z</time>
      </trkpt>
      <trkpt lat="43.41721" lon="6.55043">
        <ele>174</ele>
        <time>2019-11-10T11:18:21Z</time>
      </trkpt>
      <trkpt lat="43.4173" lon="6.55045">
        <ele>170.5</ele>
        <time>2019-11-10T11:19:32Z</time>
      </trkpt>
      <trkpt lat="43.41726" lon="6.55057">
        <ele>169.5</ele>
        <time>2019-11-10T11:19:48Z</time>
      </trkpt>
      <trkpt lat="43.4172" lon="6.55069">
        <ele>168.3</ele>
        <time>2019-11-10T11:19:57Z</time>
      </trkpt>
      <trkpt lat="43.41718" lon="6.55081">
        <ele>167.3</ele>
        <time>2019-11-10T11:20:04Z</time>
      </trkpt>
      <trkpt lat="43.41716" lon="6.55094">
        <ele>166</ele>
        <time>2019-11-10T11:20:13Z</time>
      </trkpt>
      <trkpt lat="43.41715" lon="6.55107">
        <ele>164.6</ele>
        <time>2019-11-10T11:20:21Z</time>
      </trkpt>
      <trkpt lat="43.41708" lon="6.55117">
        <ele>163.6</ele>
        <time>2019-11-10T11:20:28Z</time>
      </trkpt>
      <trkpt lat="43.41699" lon="6.5512">
        <ele>162.3</ele>
        <time>2019-11-10T11:20:38Z</time>
      </trkpt>
      <trkpt lat="43.41694" lon="6.55131">
        <ele>161.1</ele>
        <time>2019-11-10T11:20:46Z</time>
      </trkpt>
      <trkpt lat="43.41703" lon="6.55137">
        <ele>159</ele>
        <time>2019-11-10T11:20:57Z</time>
      </trkpt>
      <trkpt lat="43.41712" lon="6.55136">
        <ele>157.4</ele>
        <time>2019-11-10T11:21:07Z</time>
      </trkpt>
      <trkpt lat="43.41721" lon="6.55136">
        <ele>155.5</ele>
        <time>2019-11-10T11:21:16Z</time>
      </trkpt>
      <trkpt lat="43.41731" lon="6.55131">
        <ele>153.2</ele>
        <time>2019-11-10T11:21:30Z</time>
      </trkpt>
      <trkpt lat="43.41739" lon="6.55127">
        <ele>152.1</ele>
        <time>2019-11-10T11:21:37Z</time>
      </trkpt>
      <trkpt lat="43.41747" lon="6.55135">
        <ele>148.9</ele>
        <time>2019-11-10T11:21:58Z</time>
      </trkpt>
      <trkpt lat="43.41746" lon="6.55147">
        <ele>144</ele>
        <time>2019-11-10T11:22:45Z</time>
      </trkpt>
      <trkpt lat="43.41741" lon="6.55157">
        <ele>142.7</ele>
        <time>2019-11-10T11:23:02Z</time>
      </trkpt>
      <trkpt lat="43.41733" lon="6.55165">
        <ele>141.7</ele>
        <time>2019-11-10T11:23:12Z</time>
      </trkpt>
      <trkpt lat="43.41729" lon="6.55176">
        <ele>140.3</ele>
        <time>2019-11-10T11:23:25Z</time>
      </trkpt>
      <trkpt lat="43.41725" lon="6.55189">
        <ele>138.7</ele>
        <time>2019-11-10T11:23:48Z</time>
      </trkpt>
      <trkpt lat="43.41719" lon="6.55199">
        <ele>137.9</ele>
        <time>2019-11-10T11:24:00Z</time>
      </trkpt>
      <trkpt lat="43.41718" lon="6.55212">
        <ele>136.8</ele>
        <time>2019-11-10T11:24:10Z</time>
      </trkpt>
      <trkpt lat="43.41712" lon="6.55222">
        <ele>135.8</ele>
        <time>2019-11-10T11:24:18Z</time>
      </trkpt>
      <trkpt lat="43.41706" lon="6.55233">
        <ele>134</ele>
        <time>2019-11-10T11:24:32Z</time>
      </trkpt>
      <trkpt lat="43.41703" lon="6.55244">
        <ele>132</ele>
        <time>2019-11-10T11:24:57Z</time>
      </trkpt>
      <trkpt lat="43.41706" lon="6.55256">
        <ele>131.3</ele>
        <time>2019-11-10T11:26:00Z</time>
      </trkpt>
      <trkpt lat="43.41716" lon="6.55253">
        <ele>130.7</ele>
        <time>2019-11-10T11:26:08Z</time>
      </trkpt>
      <trkpt lat="43.41725" lon="6.55254">
        <ele>129.7</ele>
        <time>2019-11-10T11:26:21Z</time>
      </trkpt>
      <trkpt lat="43.41734" lon="6.55251">
        <ele>128.1</ele>
        <time>2019-11-10T11:26:35Z</time>
      </trkpt>
      <trkpt lat="43.41742" lon="6.55257">
        <ele>126.2</ele>
        <time>2019-11-10T11:26:50Z</time>
      </trkpt>
      <trkpt lat="43.41746" lon="6.5527">
        <ele>125</ele>
        <time>2019-11-10T11:27:00Z</time>
      </trkpt>
      <trkpt lat="43.41739" lon="6.55277">
        <ele>122.9</ele>
        <time>2019-11-10T11:27:19Z</time>
      </trkpt>
      <trkpt lat="43.4173" lon="6.55282">
        <ele>121.6</ele>
        <time>2019-11-10T11:27:25Z</time>
      </trkpt>
      <trkpt lat="43.41732" lon="6.55294">
        <ele>120.3</ele>
        <time>2019-11-10T11:27:39Z</time>
      </trkpt>
      <trkpt lat="43.41742" lon="6.55298">
        <ele>119.5</ele>
        <time>2019-11-10T11:27:48Z</time>
      </trkpt>
      <trkpt lat="43.41751" lon="6.55298">
        <ele>117.8</ele>
        <time>2019-11-10T11:27:59Z</time>
      </trkpt>
      <trkpt lat="43.4176" lon="6.55295">
        <ele>115.9</ele>
        <time>2019-11-10T11:28:21Z</time>
      </trkpt>
      <trkpt lat="43.4177" lon="6.55295">
        <ele>114.9</ele>
        <time>2019-11-10T11:29:03Z</time>
      </trkpt>
      <trkpt lat="43.4178" lon="6.55296">
        <ele>113.7</ele>
        <time>2019-11-10T11:29:18Z</time>
      </trkpt>
      <trkpt lat="43.41782" lon="6.55309">
        <ele>111</ele>
        <time>2019-11-10T11:29:45Z</time>
      </trkpt>
      <trkpt lat="43.4179" lon="6.55318">
        <ele>109.9</ele>
        <time>2019-11-10T11:29:54Z</time>
      </trkpt>
      <trkpt lat="43.41798" lon="6.55311">
        <ele>108.4</ele>
        <time>2019-11-10T11:30:10Z</time>
      </trkpt>
      <trkpt lat="43.41806" lon="6.55304">
        <ele>107.7</ele>
        <time>2019-11-10T11:30:19Z</time>
      </trkpt>
      <trkpt lat="43.41809" lon="6.55316">
        <ele>103</ele>
        <time>2019-11-10T11:31:22Z</time>
      </trkpt>
      <trkpt lat="43.41812" lon="6.55328">
        <ele>102.5</ele>
        <time>2019-11-10T11:31:34Z</time>
      </trkpt>
      <trkpt lat="43.41812" lon="6.55341">
        <ele>101.6</ele>
        <time>2019-11-10T11:31:51Z</time>
      </trkpt>
      <trkpt lat="43.41809" lon="6.55353">
        <ele>100.3</ele>
        <time>2019-11-10T11:32:12Z</time>
      </trkpt>
      <trkpt lat="43.4181" lon="6.55366">
        <ele>99.3</ele>
        <time>2019-11-10T11:32:23Z</time>
      </trkpt>
      <trkpt lat="43.41817" lon="6.55374">
        <ele>97.7</ele>
        <time>2019-11-10T11:32:41Z</time>
      </trkpt>
      <trkpt lat="43.41826" lon="6.55376">
        <ele>96.2</ele>
        <time>2019-11-10T11:32:56Z</time>
      </trkpt>
      <trkpt lat="43.41835" lon="6.55377">
        <ele>94.7</ele>
        <time>2019-11-10T11:33:09Z</time>
      </trkpt>
      <trkpt lat="43.41844" lon="6.55376">
        <ele>93.6</ele>
        <time>2019-11-10T11:33:18Z</time>
      </trkpt>
      <trkpt lat="43.41853" lon="6.55371">
        <ele>91.8</ele>
        <time>2019-11-10T11:33:31Z</time>
      </trkpt>
      <trkpt lat="43.41862" lon="6.55371">
        <ele>91.1</ele>
        <time>2019-11-10T11:33:41Z</time>
      </trkpt>
      <trkpt lat="43.41871" lon="6.55368">
        <ele>90.1</ele>
        <time>2019-11-10T11:33:50Z</time>
      </trkpt>
      <trkpt lat="43.4188" lon="6.55365">
        <ele>87.6</ele>
        <time>2019-11-10T11:34:23Z</time>
      </trkpt>
      <trkpt lat="43.41888" lon="6.5537">
        <ele>86.4</ele>
        <time>2019-11-10T11:34:53Z</time>
      </trkpt>
      <trkpt lat="43.41896" lon="6.55379">
        <ele>85.4</ele>
        <time>2019-11-10T11:35:01Z</time>
      </trkpt>
      <trkpt lat="43.41902" lon="6.5539">
        <ele>84.1</ele>
        <time>2019-11-10T11:35:11Z</time>
      </trkpt>
      <trkpt lat="43.41911" lon="6.55397">
        <ele>82.8</ele>
        <time>2019-11-10T11:35:18Z</time>
      </trkpt>
      <trkpt lat="43.41919" lon="6.55405">
        <ele>81.8</ele>
        <time>2019-11-10T11:35:24Z</time>
      </trkpt>
      <trkpt lat="43.41926" lon="6.55415">
        <ele>80.7</ele>
        <time>2019-11-10T11:35:31Z</time>
      </trkpt>
      <trkpt lat="43.41927" lon="6.55428">
        <ele>79.1</ele>
        <time>2019-11-10T11:35:46Z</time>
      </trkpt>
      <trkpt lat="43.4192" lon="6.55435">
        <ele>78.6</ele>
        <time>2019-11-10T11:35:57Z</time>
      </trkpt>
      <trkpt lat="43.41912" lon="6.55441">
        <ele>78.2</ele>
        <time>2019-11-10T11:36:09Z</time>
      </trkpt>
      <trkpt lat="43.41902" lon="6.55446">
        <ele>76.8</ele>
        <time>2019-11-10T11:36:23Z</time>
      </trkpt>
      <trkpt lat="43.41893" lon="6.5545">
        <ele>75.5</ele>
        <time>2019-11-10T11:36:31Z</time>
      </trkpt>
      <trkpt lat="43.41884" lon="6.55453">
        <ele>73.9</ele>
        <time>2019-11-10T11:36:41Z</time>
      </trkpt>
      <trkpt lat="43.41875" lon="6.55459">
        <ele>72.5</ele>
        <time>2019-11-10T11:36:54Z</time>
      </trkpt>
      <trkpt lat="43.41868" lon="6.55467">
        <ele>71.4</ele>
        <time>2019-11-10T11:37:05Z</time>
      </trkpt>
      <trkpt lat="43.41867" lon="6.5548">
        <ele>70.7</ele>
        <time>2019-11-10T11:37:14Z</time>
      </trkpt>
      <trkpt lat="43.41867" lon="6.55493">
        <ele>69.9</ele>
        <time>2019-11-10T11:37:50Z</time>
      </trkpt>
      <trkpt lat="43.41876" lon="6.55495">
        <ele>70</ele>
        <time>2019-11-10T11:38:49Z</time>
      </trkpt>
      <trkpt lat="43.41867" lon="6.55498">
        <ele>70</ele>
        <time>2019-11-10T11:39:51Z</time>
      </trkpt>
      <trkpt lat="43.4186" lon="6.55508">
        <ele>70.2</ele>
        <time>2019-11-10T11:40:03Z</time>
      </trkpt>
      <trkpt lat="43.41853" lon="6.55516">
        <ele>71.1</ele>
        <time>2019-11-10T11:40:17Z</time>
      </trkpt>
      <trkpt lat="43.41846" lon="6.55524">
        <ele>72.2</ele>
        <time>2019-11-10T11:40:28Z</time>
      </trkpt>
      <trkpt lat="43.41837" lon="6.55527">
        <ele>73</ele>
        <time>2019-11-10T11:40:39Z</time>
      </trkpt>
      <trkpt lat="43.4183" lon="6.55536">
        <ele>74.1</ele>
        <time>2019-11-10T11:40:48Z</time>
      </trkpt>
      <trkpt lat="43.41826" lon="6.55548">
        <ele>74.9</ele>
        <time>2019-11-10T11:40:56Z</time>
      </trkpt>
      <trkpt lat="43.41822" lon="6.5556">
        <ele>75.8</ele>
        <time>2019-11-10T11:41:06Z</time>
      </trkpt>
      <trkpt lat="43.41817" lon="6.55571">
        <ele>76.2</ele>
        <time>2019-11-10T11:41:16Z</time>
      </trkpt>
      <trkpt lat="43.41812" lon="6.55582">
        <ele>76.5</ele>
        <time>2019-11-10T11:41:26Z</time>
      </trkpt>
      <trkpt lat="43.41805" lon="6.55591">
        <ele>77.3</ele>
        <time>2019-11-10T11:41:37Z</time>
      </trkpt>
      <trkpt lat="43.41797" lon="6.55597">
        <ele>78.6</ele>
        <time>2019-11-10T11:41:54Z</time>
      </trkpt>
      <trkpt lat="43.41789" lon="6.55605">
        <ele>79.8</ele>
        <time>2019-11-10T11:42:34Z</time>
      </trkpt>
      <trkpt lat="43.4178" lon="6.55608">
        <ele>80.6</ele>
        <time>2019-11-10T11:42:49Z</time>
      </trkpt>
      <trkpt lat="43.41772" lon="6.55615">
        <ele>81.4</ele>
        <time>2019-11-10T11:43:01Z</time>
      </trkpt>
      <trkpt lat="43.41767" lon="6.55625">
        <ele>82.9</ele>
        <time>2019-11-10T11:43:11Z</time>
      </trkpt>
      <trkpt lat="43.41761" lon="6.55635">
        <ele>84.3</ele>
        <time>2019-11-10T11:43:21Z</time>
      </trkpt>
      <trkpt lat="43.41758" lon="6.55647">
        <ele>85.4</ele>
        <time>2019-11-10T11:43:31Z</time>
      </trkpt>
      <trkpt lat="43.41756" lon="6.5566">
        <ele>86.7</ele>
        <time>2019-11-10T11:43:42Z</time>
      </trkpt>
      <trkpt lat="43.41752" lon="6.55671">
        <ele>87.9</ele>
        <time>2019-11-10T11:43:52Z</time>
      </trkpt>
      <trkpt lat="43.41748" lon="6.55683">
        <ele>89.7</ele>
        <time>2019-11-10T11:44:37Z</time>
      </trkpt>
      <trkpt lat="43.41743" lon="6.55694">
        <ele>90.3</ele>
        <time>2019-11-10T11:44:51Z</time>
      </trkpt>
      <trkpt lat="43.41737" lon="6.55704">
        <ele>90.8</ele>
        <time>2019-11-10T11:45:02Z</time>
      </trkpt>
      <trkpt lat="43.41733" lon="6.55716">
        <ele>91.9</ele>
        <time>2019-11-10T11:45:13Z</time>
      </trkpt>
      <trkpt lat="43.41732" lon="6.55729">
        <ele>93</ele>
        <time>2019-11-10T11:45:22Z</time>
      </trkpt>
      <trkpt lat="43.4173" lon="6.55741">
        <ele>94.1</ele>
        <time>2019-11-10T11:45:32Z</time>
      </trkpt>
      <trkpt lat="43.41729" lon="6.55754">
        <ele>95.3</ele>
        <time>2019-11-10T11:45:42Z</time>
      </trkpt>
      <trkpt lat="43.41732" lon="6.55766">
        <ele>96.4</ele>
        <time>2019-11-10T11:45:51Z</time>
      </trkpt>
      <trkpt lat="43.41737" lon="6.55777">
        <ele>97.9</ele>
        <time>2019-11-10T11:46:02Z</time>
      </trkpt>
      <trkpt lat="43.41741" lon="6.55789">
        <ele>98.8</ele>
        <time>2019-11-10T11:46:12Z</time>
      </trkpt>
      <trkpt lat="43.41742" lon="6.55802">
        <ele>99.7</ele>
        <time>2019-11-10T11:46:22Z</time>
      </trkpt>
      <trkpt lat="43.41739" lon="6.55814">
        <ele>100.5</ele>
        <time>2019-11-10T11:46:32Z</time>
      </trkpt>
      <trkpt lat="43.41732" lon="6.55822">
        <ele>101.8</ele>
        <time>2019-11-10T11:46:42Z</time>
      </trkpt>
      <trkpt lat="43.41722" lon="6.55819">
        <ele>102.4</ele>
        <time>2019-11-10T11:46:52Z</time>
      </trkpt>
      <trkpt lat="43.41712" lon="6.55815">
        <ele>103.1</ele>
        <time>2019-11-10T11:47:02Z</time>
      </trkpt>
      <trkpt lat="43.41703" lon="6.55819">
        <ele>103.9</ele>
        <time>2019-11-10T11:47:11Z</time>
      </trkpt>
      <trkpt lat="43.41695" lon="6.55824">
        <ele>104.9</ele>
        <time>2019-11-10T11:47:20Z</time>
      </trkpt>
      <trkpt lat="43.41686" lon="6.5583">
        <ele>105.6</ele>
        <time>2019-11-10T11:47:29Z</time>
      </trkpt>
      <trkpt lat="43.41678" lon="6.55836">
        <ele>106.1</ele>
        <time>2019-11-10T11:47:39Z</time>
      </trkpt>
      <trkpt lat="43.41673" lon="6.55848">
        <ele>107</ele>
        <time>2019-11-10T11:47:49Z</time>
      </trkpt>
      <trkpt lat="43.41669" lon="6.5586">
        <ele>108.2</ele>
        <time>2019-11-10T11:47:58Z</time>
      </trkpt>
      <trkpt lat="43.41664" lon="6.55871">
        <ele>109</ele>
        <time>2019-11-10T11:48:07Z</time>
      </trkpt>
      <trkpt lat="43.41656" lon="6.55878">
        <ele>109.5</ele>
        <time>2019-11-10T11:48:17Z</time>
      </trkpt>
      <trkpt lat="43.41646" lon="6.5588">
        <ele>110.2</ele>
        <time>2019-11-10T11:48:29Z</time>
      </trkpt>
      <trkpt lat="43.41637" lon="6.55883">
        <ele>110.9</ele>
        <time>2019-11-10T11:48:37Z</time>
      </trkpt>
      <trkpt lat="43.41628" lon="6.55889">
        <ele>111.4</ele>
        <time>2019-11-10T11:48:45Z</time>
      </trkpt>
      <trkpt lat="43.4162" lon="6.55895">
        <ele>112.4</ele>
        <time>2019-11-10T11:48:54Z</time>
      </trkpt>
      <trkpt lat="43.41613" lon="6.55903">
        <ele>113.1</ele>
        <time>2019-11-10T11:49:02Z</time>
      </trkpt>
      <trkpt lat="43.41606" lon="6.55912">
        <ele>114.2</ele>
        <time>2019-11-10T11:49:11Z</time>
      </trkpt>
      <trkpt lat="43.416" lon="6.5592">
        <ele>115</ele>
        <time>2019-11-10T11:49:21Z</time>
      </trkpt>
      <trkpt lat="43.41597" lon="6.55932">
        <ele>117.4</ele>
        <time>2019-11-10T11:52:22Z</time>
      </trkpt>
      <trkpt lat="43.41597" lon="6.55919">
        <ele>116.8</ele>
        <time>2019-11-10T11:53:53Z</time>
      </trkpt>
      <trkpt lat="43.41591" lon="6.55929">
        <ele>117</ele>
        <time>2019-11-10T11:56:43Z</time>
      </trkpt>
      <trkpt lat="43.41585" lon="6.55938">
        <ele>116.4</ele>
        <time>2019-11-10T11:56:55Z</time>
      </trkpt>
      <trkpt lat="43.41576" lon="6.55942">
        <ele>114.8</ele>
        <time>2019-11-10T11:57:07Z</time>
      </trkpt>
      <trkpt lat="43.4157" lon="6.55952">
        <ele>112.8</ele>
        <time>2019-11-10T11:57:24Z</time>
      </trkpt>
      <trkpt lat="43.41576" lon="6.55962">
        <ele>110.4</ele>
        <time>2019-11-10T11:58:13Z</time>
      </trkpt>
      <trkpt lat="43.41578" lon="6.55974">
        <ele>109.8</ele>
        <time>2019-11-10T11:58:28Z</time>
      </trkpt>
      <trkpt lat="43.41575" lon="6.55986">
        <ele>108.4</ele>
        <time>2019-11-10T11:58:49Z</time>
      </trkpt>
      <trkpt lat="43.41577" lon="6.55999">
        <ele>106.9</ele>
        <time>2019-11-10T11:59:03Z</time>
      </trkpt>
      <trkpt lat="43.41577" lon="6.56011">
        <ele>103.4</ele>
        <time>2019-11-10T11:59:27Z</time>
      </trkpt>
      <trkpt lat="43.41576" lon="6.56024">
        <ele>100</ele>
        <time>2019-11-10T11:59:52Z</time>
      </trkpt>
      <trkpt lat="43.41574" lon="6.56036">
        <ele>96.5</ele>
        <time>2019-11-10T12:00:18Z</time>
      </trkpt>
      <trkpt lat="43.41577" lon="6.56048">
        <ele>93.9</ele>
        <time>2019-11-10T12:00:41Z</time>
      </trkpt>
      <trkpt lat="43.41577" lon="6.56061">
        <ele>90.7</ele>
        <time>2019-11-10T12:01:16Z</time>
      </trkpt>
      <trkpt lat="43.41569" lon="6.56068">
        <ele>88.9</ele>
        <time>2019-11-10T12:01:36Z</time>
      </trkpt>
      <trkpt lat="43.41562" lon="6.56077">
        <ele>88.2</ele>
        <time>2019-11-10T12:01:53Z</time>
      </trkpt>
      <trkpt lat="43.41553" lon="6.5608">
        <ele>87.9</ele>
        <time>2019-11-10T12:02:12Z</time>
      </trkpt>
      <trkpt lat="43.4155" lon="6.56091">
        <ele>87.4</ele>
        <time>2019-11-10T12:02:50Z</time>
      </trkpt>
      <trkpt lat="43.41553" lon="6.56103">
        <ele>86.2</ele>
        <time>2019-11-10T12:03:32Z</time>
      </trkpt>
      <trkpt lat="43.41546" lon="6.56111">
        <ele>86.1</ele>
        <time>2019-11-10T12:04:29Z</time>
      </trkpt>
      <trkpt lat="43.41539" lon="6.56119">
        <ele>85.5</ele>
        <time>2019-11-10T12:04:52Z</time>
      </trkpt>
      <trkpt lat="43.41533" lon="6.56129">
        <ele>85.4</ele>
        <time>2019-11-10T12:05:35Z</time>
      </trkpt>
      <trkpt lat="43.41528" lon="6.56139">
        <ele>83.6</ele>
        <time>2019-11-10T12:06:36Z</time>
      </trkpt>
      <trkpt lat="43.41532" lon="6.56151">
        <ele>85</ele>
        <time>2019-11-10T12:08:18Z</time>
      </trkpt>
      <trkpt lat="43.41535" lon="6.56138">
        <ele>87.6</ele>
        <time>2019-11-10T12:09:59Z</time>
      </trkpt>
      <trkpt lat="43.41535" lon="6.56151">
        <ele>87</ele>
        <time>2019-11-10T12:10:23Z</time>
      </trkpt>
      <trkpt lat="43.41541" lon="6.56163">
        <ele>87.1</ele>
        <time>2019-11-10T12:10:33Z</time>
      </trkpt>
      <trkpt lat="43.41539" lon="6.56176">
        <ele>87.9</ele>
        <time>2019-11-10T12:10:44Z</time>
      </trkpt>
      <trkpt lat="43.41539" lon="6.56188">
        <ele>88.5</ele>
        <time>2019-11-10T12:11:00Z</time>
      </trkpt>
      <trkpt lat="43.41538" lon="6.56201">
        <ele>87.7</ele>
        <time>2019-11-10T12:11:23Z</time>
      </trkpt>
      <trkpt lat="43.41536" lon="6.56213">
        <ele>85.1</ele>
        <time>2019-11-10T12:14:43Z</time>
      </trkpt>
      <trkpt lat="43.41537" lon="6.56226">
        <ele>85.1</ele>
        <time>2019-11-10T12:15:22Z</time>
      </trkpt>
      <trkpt lat="43.41538" lon="6.56238">
        <ele>85.2</ele>
        <time>2019-11-10T12:15:46Z</time>
      </trkpt>
      <trkpt lat="43.41543" lon="6.56249">
        <ele>85.1</ele>
        <time>2019-11-10T12:16:21Z</time>
      </trkpt>
      <trkpt lat="43.41545" lon="6.56261">
        <ele>85.9</ele>
        <time>2019-11-10T12:17:23Z</time>
      </trkpt>
      <trkpt lat="43.41541" lon="6.56273">
        <ele>86.2</ele>
        <time>2019-11-10T12:17:52Z</time>
      </trkpt>
      <trkpt lat="43.41544" lon="6.56285">
        <ele>86</ele>
        <time>2019-11-10T12:18:07Z</time>
      </trkpt>
      <trkpt lat="43.41544" lon="6.56299">
        <ele>86.6</ele>
        <time>2019-11-10T12:18:36Z</time>
      </trkpt>
      <trkpt lat="43.41546" lon="6.56311">
        <ele>87.1</ele>
        <time>2019-11-10T12:18:48Z</time>
      </trkpt>
      <trkpt lat="43.41544" lon="6.56324">
        <ele>87.4</ele>
        <time>2019-11-10T12:19:09Z</time>
      </trkpt>
      <trkpt lat="43.41545" lon="6.56337">
        <ele>87.4</ele>
        <time>2019-11-10T12:19:23Z</time>
      </trkpt>
      <trkpt lat="43.41546" lon="6.56349">
        <ele>87.4</ele>
        <time>2019-11-10T12:19:36Z</time>
      </trkpt>
      <trkpt lat="43.4154" lon="6.56359">
        <ele>87.9</ele>
        <time>2019-11-10T12:21:12Z</time>
      </trkpt>
      <trkpt lat="43.41534" lon="6.56368">
        <ele>88.2</ele>
        <time>2019-11-10T12:21:25Z</time>
      </trkpt>
      <trkpt lat="43.4153" lon="6.5638">
        <ele>88.2</ele>
        <time>2019-11-10T12:21:50Z</time>
      </trkpt>
      <trkpt lat="43.41525" lon="6.5639">
        <ele>88.2</ele>
        <time>2019-11-10T12:22:26Z</time>
      </trkpt>
      <trkpt lat="43.41517" lon="6.56399">
        <ele>88.4</ele>
        <time>2019-11-10T12:23:31Z</time>
      </trkpt>
      <trkpt lat="43.41509" lon="6.56406">
        <ele>88.8</ele>
        <time>2019-11-10T12:23:45Z</time>
      </trkpt>
      <trkpt lat="43.41501" lon="6.56413">
        <ele>89.6</ele>
        <time>2019-11-10T12:24:00Z</time>
      </trkpt>
      <trkpt lat="43.41495" lon="6.56423">
        <ele>90.6</ele>
        <time>2019-11-10T12:24:14Z</time>
      </trkpt>
      <trkpt lat="43.41489" lon="6.56432">
        <ele>91.7</ele>
        <time>2019-11-10T12:24:32Z</time>
      </trkpt>
      <trkpt lat="43.41491" lon="6.56444">
        <ele>91.3</ele>
        <time>2019-11-10T12:25:55Z</time>
      </trkpt>
      <trkpt lat="43.41495" lon="6.56456">
        <ele>91.7</ele>
        <time>2019-11-10T12:26:13Z</time>
      </trkpt>
      <trkpt lat="43.41503" lon="6.56461">
        <ele>92.2</ele>
        <time>2019-11-10T12:27:28Z</time>
      </trkpt>
      <trkpt lat="43.41508" lon="6.56473">
        <ele>92.6</ele>
        <time>2019-11-10T12:27:45Z</time>
      </trkpt>
      <trkpt lat="43.41511" lon="6.56485">
        <ele>92.5</ele>
        <time>2019-11-10T12:28:07Z</time>
      </trkpt>
      <trkpt lat="43.41505" lon="6.56495">
        <ele>91.6</ele>
        <time>2019-11-10T12:28:41Z</time>
      </trkpt>
      <trkpt lat="43.41502" lon="6.56507">
        <ele>92.1</ele>
        <time>2019-11-10T12:29:04Z</time>
      </trkpt>
      <trkpt lat="43.41495" lon="6.56515">
        <ele>92.9</ele>
        <time>2019-11-10T12:30:29Z</time>
      </trkpt>
      <trkpt lat="43.41493" lon="6.56528">
        <ele>93</ele>
        <time>2019-11-10T12:31:18Z</time>
      </trkpt>
      <trkpt lat="43.41486" lon="6.56536">
        <ele>95.7</ele>
        <time>2019-11-10T12:34:35Z</time>
      </trkpt>
      <trkpt lat="43.4148" lon="6.56545">
        <ele>98.2</ele>
        <time>2019-11-10T12:35:29Z</time>
      </trkpt>
      <trkpt lat="43.41481" lon="6.56557">
        <ele>99.4</ele>
        <time>2019-11-10T12:35:43Z</time>
      </trkpt>
      <trkpt lat="43.4148" lon="6.5657">
        <ele>100.4</ele>
        <time>2019-11-10T12:35:56Z</time>
      </trkpt>
      <trkpt lat="43.41478" lon="6.56583">
        <ele>98.9</ele>
        <time>2019-11-10T12:40:11Z</time>
      </trkpt>
      <trkpt lat="43.41478" lon="6.56596">
        <ele>99.3</ele>
        <time>2019-11-10T12:40:24Z</time>
      </trkpt>
      <trkpt lat="43.41476" lon="6.56609">
        <ele>99.9</ele>
        <time>2019-11-10T12:40:37Z</time>
      </trkpt>
      <trkpt lat="43.41478" lon="6.56621">
        <ele>100</ele>
        <time>2019-11-10T12:40:52Z</time>
      </trkpt>
      <trkpt lat="43.41482" lon="6.56632">
        <ele>99.9</ele>
        <time>2019-11-10T12:41:03Z</time>
      </trkpt>
      <trkpt lat="43.41485" lon="6.56646">
        <ele>99.8</ele>
        <time>2019-11-10T12:41:13Z</time>
      </trkpt>
      <trkpt lat="43.41482" lon="6.56658">
        <ele>100.1</ele>
        <time>2019-11-10T12:41:24Z</time>
      </trkpt>
      <trkpt lat="43.41479" lon="6.56671">
        <ele>100.3</ele>
        <time>2019-11-10T12:41:32Z</time>
      </trkpt>
      <trkpt lat="43.41477" lon="6.56684">
        <ele>100.5</ele>
        <time>2019-11-10T12:41:50Z</time>
      </trkpt>
      <trkpt lat="43.41474" lon="6.56696">
        <ele>100.6</ele>
        <time>2019-11-10T12:42:02Z</time>
      </trkpt>
      <trkpt lat="43.41469" lon="6.56706">
        <ele>100.7</ele>
        <time>2019-11-10T12:42:13Z</time>
      </trkpt>
      <trkpt lat="43.41467" lon="6.56719">
        <ele>101.2</ele>
        <time>2019-11-10T12:42:27Z</time>
      </trkpt>
      <trkpt lat="43.41462" lon="6.56731">
        <ele>101.8</ele>
        <time>2019-11-10T12:42:38Z</time>
      </trkpt>
      <trkpt lat="43.41458" lon="6.56743">
        <ele>102.4</ele>
        <time>2019-11-10T12:42:48Z</time>
      </trkpt>
      <trkpt lat="43.41455" lon="6.56756">
        <ele>102.8</ele>
        <time>2019-11-10T12:42:57Z</time>
      </trkpt>
      <trkpt lat="43.4145" lon="6.56768">
        <ele>102.8</ele>
        <time>2019-11-10T12:43:07Z</time>
      </trkpt>
      <trkpt lat="43.41445" lon="6.56779">
        <ele>102.6</ele>
        <time>2019-11-10T12:43:17Z</time>
      </trkpt>
      <trkpt lat="43.41441" lon="6.56791">
        <ele>102.7</ele>
        <time>2019-11-10T12:43:26Z</time>
      </trkpt>
      <trkpt lat="43.41441" lon="6.56804">
        <ele>102.9</ele>
        <time>2019-11-10T12:43:35Z</time>
      </trkpt>
      <trkpt lat="43.41444" lon="6.56816">
        <ele>103.5</ele>
        <time>2019-11-10T12:43:48Z</time>
      </trkpt>
      <trkpt lat="43.41442" lon="6.56828">
        <ele>104.4</ele>
        <time>2019-11-10T12:44:39Z</time>
      </trkpt>
      <trkpt lat="43.4144" lon="6.56841">
        <ele>104.8</ele>
        <time>2019-11-10T12:44:58Z</time>
      </trkpt>
      <trkpt lat="43.41441" lon="6.56854">
        <ele>104.9</ele>
        <time>2019-11-10T12:45:06Z</time>
      </trkpt>
      <trkpt lat="43.41442" lon="6.56867">
        <ele>105.5</ele>
        <time>2019-11-10T12:45:27Z</time>
      </trkpt>
      <trkpt lat="43.41443" lon="6.56881">
        <ele>106.9</ele>
        <time>2019-11-10T12:46:01Z</time>
      </trkpt>
      <trkpt lat="43.41443" lon="6.56895">
        <ele>107.1</ele>
        <time>2019-11-10T12:46:09Z</time>
      </trkpt>
      <trkpt lat="43.41442" lon="6.56908">
        <ele>107.1</ele>
        <time>2019-11-10T12:46:17Z</time>
      </trkpt>
      <trkpt lat="43.41441" lon="6.56921">
        <ele>107.1</ele>
        <time>2019-11-10T12:46:24Z</time>
      </trkpt>
      <trkpt lat="43.41439" lon="6.56934">
        <ele>107.4</ele>
        <time>2019-11-10T12:46:33Z</time>
      </trkpt>
      <trkpt lat="43.41436" lon="6.56946">
        <ele>106.9</ele>
        <time>2019-11-10T12:47:18Z</time>
      </trkpt>
      <trkpt lat="43.41435" lon="6.56958">
        <ele>106.8</ele>
        <time>2019-11-10T12:47:39Z</time>
      </trkpt>
      <trkpt lat="43.41434" lon="6.56972">
        <ele>106.7</ele>
        <time>2019-11-10T12:47:48Z</time>
      </trkpt>
      <trkpt lat="43.41436" lon="6.56984">
        <ele>106.7</ele>
        <time>2019-11-10T12:47:56Z</time>
      </trkpt>
      <trkpt lat="43.41441" lon="6.56996">
        <ele>106.7</ele>
        <time>2019-11-10T12:48:04Z</time>
      </trkpt>
      <trkpt lat="43.41448" lon="6.57005">
        <ele>106.7</ele>
        <time>2019-11-10T12:48:11Z</time>
      </trkpt>
      <trkpt lat="43.41457" lon="6.57009">
        <ele>106.7</ele>
        <time>2019-11-10T12:48:18Z</time>
      </trkpt>
      <trkpt lat="43.41464" lon="6.57018">
        <ele>106.4</ele>
        <time>2019-11-10T12:48:27Z</time>
      </trkpt>
      <trkpt lat="43.41471" lon="6.57025">
        <ele>106</ele>
        <time>2019-11-10T12:48:36Z</time>
      </trkpt>
      <trkpt lat="43.41462" lon="6.5703">
        <ele>104.6</ele>
        <time>2019-11-10T12:51:40Z</time>
      </trkpt>
      <trkpt lat="43.41453" lon="6.57031">
        <ele>104.4</ele>
        <time>2019-11-10T12:51:52Z</time>
      </trkpt>
      <trkpt lat="43.41444" lon="6.57036">
        <ele>105.6</ele>
        <time>2019-11-10T12:52:38Z</time>
      </trkpt>
      <trkpt lat="43.41437" lon="6.57044">
        <ele>105.8</ele>
        <time>2019-11-10T12:52:47Z</time>
      </trkpt>
      <trkpt lat="43.41429" lon="6.57052">
        <ele>105.8</ele>
        <time>2019-11-10T12:53:01Z</time>
      </trkpt>
      <trkpt lat="43.4142" lon="6.57058">
        <ele>105.9</ele>
        <time>2019-11-10T12:53:11Z</time>
      </trkpt>
      <trkpt lat="43.41411" lon="6.57061">
        <ele>106.7</ele>
        <time>2019-11-10T12:53:24Z</time>
      </trkpt>
      <trkpt lat="43.41405" lon="6.57071">
        <ele>107.9</ele>
        <time>2019-11-10T12:53:42Z</time>
      </trkpt>
      <trkpt lat="43.41396" lon="6.57079">
        <ele>109.9</ele>
        <time>2019-11-10T12:53:56Z</time>
      </trkpt>
      <trkpt lat="43.41388" lon="6.57086">
        <ele>111.5</ele>
        <time>2019-11-10T12:54:06Z</time>
      </trkpt>
      <trkpt lat="43.41381" lon="6.57094">
        <ele>112.4</ele>
        <time>2019-11-10T12:54:14Z</time>
      </trkpt>
      <trkpt lat="43.41374" lon="6.57103">
        <ele>113</ele>
        <time>2019-11-10T12:54:25Z</time>
      </trkpt>
      <trkpt lat="43.41368" lon="6.57112">
        <ele>113.8</ele>
        <time>2019-11-10T12:54:35Z</time>
      </trkpt>
      <trkpt lat="43.41361" lon="6.5712">
        <ele>115.4</ele>
        <time>2019-11-10T12:54:47Z</time>
      </trkpt>
      <trkpt lat="43.41354" lon="6.5713">
        <ele>116.3</ele>
        <time>2019-11-10T12:54:57Z</time>
      </trkpt>
      <trkpt lat="43.41348" lon="6.57139">
        <ele>116.4</ele>
        <time>2019-11-10T12:55:04Z</time>
      </trkpt>
      <trkpt lat="43.41341" lon="6.57147">
        <ele>116.9</ele>
        <time>2019-11-10T12:55:13Z</time>
      </trkpt>
      <trkpt lat="43.41333" lon="6.57153">
        <ele>117</ele>
        <time>2019-11-10T12:55:22Z</time>
      </trkpt>
      <trkpt lat="43.41328" lon="6.57164">
        <ele>116.9</ele>
        <time>2019-11-10T12:55:32Z</time>
      </trkpt>
      <trkpt lat="43.41322" lon="6.57174">
        <ele>116.3</ele>
        <time>2019-11-10T12:55:44Z</time>
      </trkpt>
      <trkpt lat="43.41318" lon="6.57186">
        <ele>116</ele>
        <time>2019-11-10T12:55:54Z</time>
      </trkpt>
      <trkpt lat="43.41311" lon="6.57197">
        <ele>115.9</ele>
        <time>2019-11-10T12:56:06Z</time>
      </trkpt>
      <trkpt lat="43.41303" lon="6.57203">
        <ele>116.1</ele>
        <time>2019-11-10T12:56:21Z</time>
      </trkpt>
      <trkpt lat="43.41295" lon="6.57209">
        <ele>116.2</ele>
        <time>2019-11-10T12:56:31Z</time>
      </trkpt>
      <trkpt lat="43.41287" lon="6.57216">
        <ele>116.1</ele>
        <time>2019-11-10T12:56:40Z</time>
      </trkpt>
      <trkpt lat="43.41282" lon="6.57226">
        <ele>116.7</ele>
        <time>2019-11-10T12:57:09Z</time>
      </trkpt>
      <trkpt lat="43.41273" lon="6.57231">
        <ele>115.8</ele>
        <time>2019-11-10T12:59:10Z</time>
      </trkpt>
      <trkpt lat="43.41277" lon="6.57234">
        <ele>116.3</ele>
        <time>2019-11-10T13:04:48Z</time>
      </trkpt>
    </trkseg>
  </trk>
</gpx>